Data for 08/21/2010

Time Sea-Level Adjusted Pressure Absolute Pressure Temperature Relative Humidity Dew Point Precipitation   
(mb) (inHg) (mb) (inHg) (C) (F) (%) (C) (F) (mm) (in)
00:01 1015 29.97 844 24.92 15.7 60.2 45 3.8 38.8 15.98 0.629
00:02 1015 29.97 844 24.92 15.5 59.9 46 3.9 39 15.82 0.623
00:03 1015 29.97 844 24.92 15.4 59.6 46 3.9 39.1 15.72 0.619
00:04 1015 29.97 844 24.92 15.2 59.3 46 3.7 38.7 15.53 0.611
00:05 1015 29.97 844 24.92 15.1 59.2 44 3.1 37.6 15.47 0.609
00:06 1015 29.97 844 24.92 15.3 59.5 43 2.7 36.9 15.63 0.615
00:07 1015 29.97 844 24.92 15.6 60 48 4.5 40.2 15.79 0.622
00:08 1015 29.97 844 24.92 15.2 59.3 44 3.1 37.6 15.54 0.612
00:09 1015 29.97 844 24.92 15.5 59.9 38 1.2 34.2 15.82 0.623
00:10 1015 29.97 844 24.92 16.6 61.8 35 1.3 34.4 16.8 0.661
00:11 1015 29.97 844 24.92 17.2 62.9 35 1.7 35.1 17.44 0.687
00:12 1015 29.97 844 24.92 17.3 63.1 35 2 35.6 17.57 0.692
00:13 1015 29.97 844 24.92 17.3 63.1 35 1.7 35.1 17.58 0.692
00:14 1015 29.97 844 24.92 17.4 63.3 35 1.8 35.2 17.71 0.697
00:15 1015 29.97 844 24.92 17.5 63.5 35 2 35.5 17.81 0.701
00:16 1015 29.97 844 24.92 17.5 63.4 37 2.6 36.7 17.73 0.698
00:17 1015 29.97 844 24.92 17.2 62.9 38 2.9 37.2 17.52 0.69
00:18 1015 29.97 844 24.92 16.9 62.4 39 2.9 37.2 17.23 0.678
00:19 1015 29.97 844 24.92 16.7 62 40 3 37.4 17.07 0.672
00:20 1015 29.97 844 24.92 16.6 61.8 41 3.2 37.8 16.92 0.666
00:21 1015 29.97 844 24.92 16.4 61.5 43 3.7 38.7 16.77 0.66
00:22 1015 29.97 844 24.92 16.1 61 44 4 39.3 16.62 0.654
00:23 1015 29.97 844 24.92 15.8 60.5 47 4.7 40.5 16.33 0.643
00:24 1015 29.97 844 24.92 15.4 59.7 49 4.7 40.5 15.86 0.624
00:25 1015 29.97 844 24.92 15 59 50 4.6 40.3 15.43 0.607
00:26 1015 29.97 844 24.92 14.6 58.4 52 4.9 40.9 15.13 0.596
00:27 1015 29.97 844 24.92 14.2 57.6 52 4.7 40.5 14.68 0.578
00:28 1015 29.97 844 24.92 14 57.2 53 4.7 40.5 14.37 0.566
00:29 1015 29.97 844 24.92 13.7 56.6 50 3.6 38.5 14.11 0.556
00:30 1015 29.97 844 24.92 13.7 56.7 51 3.7 38.7 14.12 0.556
00:31 1015 29.97 844 24.92 14 57.2 47 3.1 37.6 14.39 0.567
00:32 1015 29.97 844 24.92 14.4 57.8 48 3.5 38.3 14.81 0.583
00:33 1015 29.97 844 24.92 14.6 58.2 47 3.3 38 14.97 0.589
00:34 1015 29.97 844 24.92 14.7 58.5 51 4.6 40.4 15.14 0.596
00:35 1015 29.97 844 24.92 14.4 57.9 51 4.5 40.1 14.89 0.586
00:36 1015 29.97 844 24.92 14.1 57.3 51 4 39.2 14.56 0.573
00:37 1015 29.97 844 24.92 14 57.2 48 3.4 38.1 14.47 0.57
00:38 1015 29.97 844 24.92 14.3 57.7 47 3.3 37.9 14.72 0.58
00:39 1015 29.97 844 24.92 14.5 58 46 3.2 37.8 14.94 0.588
00:40 1015 29.97 844 24.92 14.7 58.4 45 2.9 37.2 15.19 0.598
00:41 1015 29.97 844 24.92 15 59 45 3.1 37.7 15.52 0.611
00:42 1015 29.97 844 24.92 15.2 59.3 43 2.8 37 15.67 0.617
00:43 1015 29.97 844 24.92 15.3 59.6 45 3.5 38.3 15.72 0.619
00:44 1015 29.97 844 24.92 15.3 59.5 45 3.5 38.3 15.63 0.615
00:45 1015 29.97 844 24.92 15.2 59.3 46 3.9 39 15.54 0.612
00:46 1015 29.97 844 24.92 15.1 59.1 45 3.4 38.1 15.44 0.608
00:47 1015 29.97 844 24.92 14.9 58.8 49 4.3 39.7 15.29 0.602
00:48 1015 29.97 844 24.92 14.4 58 49 3.9 39.1 14.93 0.588
00:49 1015 29.97 844 24.92 14.3 57.7 49 3.7 38.7 14.74 0.58
00:50 1015 29.97 844 24.92 14.3 57.8 46 2.9 37.3 14.78 0.582
00:51 1015 29.97 844 24.92 14.6 58.2 45 3 37.4 15.15 0.596
00:52 1015 29.97 844 24.92 14.9 58.9 45 3.1 37.7 15.47 0.609
00:53 1015 29.97 844 24.92 15.1 59.1 44 3 37.4 15.55 0.612
00:54 1015 29.97 844 24.92 15.2 59.4 45 3.5 38.3 15.65 0.616
00:55 1015 29.97 844 24.92 15.1 59.2 45 3.4 38.1 15.53 0.611
00:56 1015 29.97 844 24.92 15 59 43 2.6 36.7 15.44 0.608
00:57 1015 29.97 844 24.92 15.2 59.3 42 2.5 36.4 15.68 0.617
00:58 1015 29.97 844 24.92 15.4 59.8 42 2.7 36.9 15.94 0.628
00:59 1015 29.97 844 24.92 15.5 60 41 2.5 36.4 16.04 0.631
01:00 1015 29.97 844 24.92 15.7 60.3 41 2.5 36.6 16.24 0.639
01:01 1015 29.97 844 24.92 16 60.9 39 2.2 36 16.58 0.653
01:02 1015 29.97 844 24.92 16.3 61.3 40 2.9 37.3 16.76 0.66
01:03 1015 29.97 844 24.92 16 60.9 44 3.8 38.8 16.48 0.649
01:04 1015 29.97 844 24.92 15.7 60.3 39 1.9 35.5 16.26 0.64
01:05 1015 29.97 844 24.92 16.1 60.9 40 2.5 36.5 16.62 0.654
01:06 1015 29.97 844 24.92 16.2 61.2 39 2.5 36.5 16.72 0.658
01:07 1015 29.97 844 24.92 16.6 61.8 38 2.2 35.9 17.08 0.672
01:08 1015 29.97 844 24.92 16.8 62.2 40 3.3 38 17.24 0.679
01:09 1015 29.97 844 24.92 16.7 62.1 39 2.9 37.1 17.06 0.672
01:10 1015 29.97 844 24.92 16.6 61.8 41 3.3 37.9 16.91 0.666
01:11 1015 29.97 844 24.92 16.4 61.5 41 3.1 37.6 16.62 0.654
01:12 1015 29.97 844 24.92 16.1 61.1 41 3.1 37.6 16.39 0.645
01:13 1015 29.97 844 24.92 16 60.8 41 2.9 37.2 16.39 0.645
01:14 1015 29.97 844 24.92 16 60.9 41 2.9 37.2 16.43 0.647
01:15 1015 29.97 844 24.92 16 60.9 41 2.8 37 16.45 0.648
01:16 1015 29.97 844 24.92 16.1 60.9 40 2.7 36.9 16.53 0.651
01:17 1015 29.97 844 24.92 16.2 61.2 40 2.6 36.6 16.69 0.657
01:18 1015 29.97 844 24.92 16.4 61.5 39 2.5 36.6 16.84 0.663
01:19 1015 29.97 844 24.92 16.5 61.6 39 2.6 36.6 16.95 0.667
01:20 1015 29.97 844 24.92 16.6 61.8 39 2.6 36.6 17.01 0.67
01:21 1015 29.97 844 24.92 16.6 61.9 39 2.7 36.9 17.08 0.672
01:22 1015 29.97 844 24.92 16.7 62 39 2.9 37.2 16.99 0.669
01:23 1015 29.97 844 24.92 16.5 61.8 42 3.7 38.7 16.89 0.665
01:24 1015 29.97 844 24.92 16.1 61 41 2.8 37 16.56 0.652
01:25 1015 29.97 844 24.92 16.1 60.9 40 2.5 36.5 16.45 0.648
01:26 1015 29.97 844 24.92 16.2 61.2 39 2.5 36.4 16.71 0.658
01:27 1015 29.97 844 24.92 16.5 61.6 41 3.2 37.7 16.91 0.666
01:28 1015 29.97 844 24.92 16.4 61.5 42 3.6 38.6 16.83 0.663
01:29 1015 29.97 845 24.95 15.8 60.5 44 3.8 38.8 16.21 0.638
01:30 1015 29.97 845 24.95 15 59 48 4.1 39.4 15.37 0.605
01:31 1015 29.97 845 24.95 14.3 57.8 46 2.9 37.2 14.69 0.578
01:32 1015 29.97 845 24.95 14.4 57.9 44 2.4 36.4 14.63 0.576
01:33 1015 29.97 844 24.92 14.9 58.7 42 2 35.7 15.28 0.602
01:34 1015 29.97 844 24.92 15.5 60 42 2.7 36.8 16.02 0.631
01:35 1015 29.97 844 24.92 16 60.7 40 2.4 36.3 16.31 0.642
01:36 1015 29.97 845 24.95 16.2 61.2 39 2.3 36.1 16.58 0.653
01:37 1015 29.97 845 24.95 16.4 61.6 39 2.6 36.6 16.86 0.664
01:38 1015 29.97 844 24.92 16.5 61.6 39 2.6 36.8 16.86 0.664
01:39 1015 29.97 845 24.95 16.5 61.7 40 3 37.3 16.88 0.665
01:40 1015 29.97 845 24.95 16.4 61.6 42 3.5 38.3 16.8 0.661
01:41 1015 29.97 845 24.95 16.1 61 42 3.3 38 16.54 0.651
01:42 1015 29.97 845 24.95 15.9 60.6 42 3 37.5 16.38 0.645
01:43 1015 29.97 845 24.95 15.8 60.5 41 2.9 37.2 16.22 0.639
01:44 1015 29.97 844 24.92 15.8 60.4 43 3.4 38.2 16.21 0.638
01:45 1015 29.97 845 24.95 15.6 60.1 43 3.1 37.7 16.12 0.635
01:46 1015 29.97 845 24.95 15.5 59.9 43 3.2 37.8 15.95 0.628
01:47 1015 29.97 845 24.95 15.3 59.6 45 3.6 38.5 15.71 0.619
01:48 1015 29.97 845 24.95 15 59 45 3.4 38.1 15.38 0.606
01:49 1015 29.97 845 24.95 14.7 58.4 47 3.7 38.7 15.05 0.593
01:50 1015 29.97 845 24.95 14.1 57.4 50 4 39.2 14.62 0.576
01:51 1015 29.97 845 24.95 13.5 56.3 52 3.8 38.8 14.01 0.552
01:52 1015 29.97 845 24.95 13.3 56 51 3.5 38.2 13.78 0.543
01:53 1015 29.97 845 24.95 13.3 55.9 52 3.6 38.5 13.71 0.54
01:54 1015 29.97 845 24.95 13.2 55.8 52 3.6 38.5 13.54 0.533
01:55 1015 29.97 845 24.95 13.1 55.6 53 3.8 38.9 13.48 0.531
01:56 1015 29.97 845 24.95 13 55.3 53 3.6 38.4 13.27 0.522
01:57 1015 29.97 845 24.95 13.1 55.5 53 3.9 39 13.28 0.523
01:58 1015 29.97 845 24.95 12.8 55 56 4.2 39.6 12.97 0.511
01:59 1015 29.97 845 24.95 12.3 54.1 58 4.3 39.8 12.57 0.495
02:00 1015 29.97 845 24.95 11.8 53.3 59 4.2 39.6 12.14 0.478
02:01 1015 29.97 845 24.95 11.4 52.5 60 3.9 38.9 11.76 0.463
02:02 1015 29.97 845 24.95 11.5 52.7 59 3.7 38.7 11.8 0.465
02:03 1015 29.97 845 24.95 11.7 53 59 4 39.2 11.87 0.467
02:04 1015 29.97 845 24.95 11.6 52.8 60 4.1 39.3 11.8 0.465
02:05 1015 29.97 845 24.95 11.4 52.6 61 4.2 39.6 11.72 0.461
02:06 1015 29.97 845 24.95 11.4 52.4 59 3.6 38.5 11.66 0.459
02:07 1015 29.97 845 24.95 11.6 52.8 59 3.9 39 11.74 0.462
02:08 1015 29.97 845 24.95 11.6 52.9 58 3.6 38.5 11.74 0.462
02:09 1015 29.97 845 24.95 11.7 53.1 59 4 39.2 11.84 0.466
02:10 1015 29.97 845 24.95 11.5 52.7 60 4.1 39.4 11.62 0.457
02:11 1015 29.97 845 24.95 11.2 52.1 60 3.8 38.8 11.4 0.449
02:12 1015 29.97 845 24.95 11.1 51.9 61 3.9 39 11.32 0.446
02:13 1015 29.97 845 24.95 10.9 51.7 61 3.8 38.8 11.17 0.44
02:14 1015 29.97 845 24.95 11 51.7 61 3.9 39 11.17 0.44
02:15 1015 29.97 845 24.95 10.8 51.5 62 3.9 39.1 11.11 0.437
02:16 1015 29.97 845 24.95 10.7 51.3 62 3.9 39 10.97 0.432
02:17 1015 29.97 845 24.95 10.7 51.2 62 3.8 38.8 10.96 0.431
02:18 1016 30 845 24.95 10.8 51.4 61 3.5 38.3 11.01 0.433
02:19 1016 30 845 24.95 10.9 51.5 62 3.9 39 11.13 0.438
02:20 1016 30 845 24.95 10.6 51.1 63 3.9 39 10.94 0.431
02:21 1016 30 845 24.95 10.4 50.7 65 4.1 39.3 10.77 0.424
02:22 1016 30 845 24.95 10.1 50.2 65 3.9 39 10.5 0.413
02:23 1016 30 845 24.95 10 50 65 3.9 39 10.42 0.41
02:24 1016 30 845 24.95 10 49.9 65 3.8 38.8 10.37 0.408
02:25 1016 30 845 24.95 10.1 50.1 65 3.7 38.7 10.42 0.41
02:26 1016 30 845 24.95 10.1 50.1 65 3.8 38.8 10.41 0.41
02:27 1016 30 845 24.95 10 50 66 3.9 39.1 10.26 0.404
02:28 1016 30 845 24.95 9.9 49.8 65 3.7 38.6 10.21 0.402
02:29 1016 30 845 24.95 9.9 49.9 66 3.8 38.9 10.18 0.401
02:30 1016 30 845 24.95 9.8 49.7 66 3.8 38.9 10.07 0.396
02:31 1015 29.97 845 24.95 9.7 49.4 67 3.8 38.8 9.99 0.393
02:32 1016 30 845 24.95 9.6 49.3 67 3.9 39 9.93 0.391
02:33 1016 30 845 24.95 9.5 49.1 67 3.8 38.8 9.78 0.385
02:34 1016 30 845 24.95 9.6 49.3 66 3.5 38.3 9.88 0.389
02:35 1016 30 845 24.95 9.9 49.8 65 3.5 38.4 10.17 0.4
02:36 1016 30 845 24.95 10 50 64 3.6 38.5 10.29 0.405
02:37 1016 30 845 24.95 10.1 50.1 65 3.8 38.9 10.33 0.407
02:38 1016 30 845 24.95 9.9 49.9 65 3.7 38.7 10.24 0.403
02:39 1016 30 845 24.95 9.9 49.9 65 3.7 38.7 10.3 0.406
02:40 1016 30 845 24.95 9.9 49.9 65 3.7 38.7 10.28 0.405
02:41 1016 30 845 24.95 9.9 49.8 66 3.8 38.9 10.23 0.403
02:42 1016 30 845 24.95 9.7 49.5 66 3.8 38.9 10.12 0.398
02:43 1016 30 845 24.95 9.7 49.4 66 3.7 38.6 10.04 0.395
02:44 1016 30 845 24.95 9.8 49.6 65 3.6 38.6 10.12 0.398
02:45 1016 30 845 24.95 9.9 49.8 65 3.7 38.6 10.23 0.403
02:46 1016 30 845 24.95 10 49.9 65 3.8 38.8 10.3 0.406
02:47 1016 30 845 24.95 9.9 49.9 66 3.8 38.9 10.28 0.405
02:48 1016 30 845 24.95 9.9 49.8 66 3.8 38.8 10.24 0.403
02:49 1016 30 845 24.95 9.9 49.7 66 3.7 38.7 10.23 0.403
02:50 1016 30 845 24.95 9.8 49.7 66 3.8 38.9 10.18 0.401
02:51 1016 30 845 24.95 9.7 49.5 66 3.8 38.8 10.09 0.397
02:52 1016 30 845 24.95 9.7 49.4 67 3.8 38.8 10.04 0.395
02:53 1016 30 845 24.95 9.6 49.3 67 3.8 38.9 9.98 0.393
02:54 1016 30 845 24.95 9.6 49.3 67 3.7 38.7 9.94 0.391
02:55 1016 30 845 24.95 9.5 49.1 67 3.8 38.9 9.88 0.389
02:56 1016 30 845 24.95 9.4 49 69 4 39.2 9.77 0.385
02:57 1016 30 845 24.95 9.3 48.7 70 4 39.2 9.66 0.38
02:58 1016 30 845 24.95 9.1 48.4 70 3.9 39.1 9.51 0.374
02:59 1016 30 845 24.95 9 48.3 70 3.9 39 9.42 0.371
03:00 1016 30 845 24.95 9 48.2 70 3.8 38.8 9.33 0.367
03:01 1016 30 845 24.95 9 48.2 70 3.9 39 9.37 0.369
03:02 1016 30 845 24.95 9 48.1 71 3.9 39.1 9.3 0.366
03:03 1016 30 845 24.95 8.8 47.9 72 4 39.2 9.25 0.364
03:04 1016 30 845 24.95 8.8 47.8 69 3.5 38.3 9.19 0.362
03:05 1016 30 845 24.95 9.7 49.4 57 1.6 35 9.87 0.389
03:06 1016 30 845 24.95 11.1 52 59 3.5 38.3 11.34 0.446
03:07 1016 30 845 24.95 11.1 52 54 2.2 35.9 11.53 0.454
03:08 1016 30 845 24.95 11.1 52.1 60 3.7 38.6 11.51 0.453
03:09 1016 30 845 24.95 10.9 51.5 61 3.7 38.6 11.27 0.444
03:10 1016 30 845 24.95 10.5 51 65 4.4 39.9 11.04 0.435
03:11 1016 30 845 24.95 10 50 68 4.5 40.1 10.55 0.415
03:12 1016 30 845 24.95 9.4 49 71 4.4 40 10.04 0.395
03:13 1016 30 845 24.95 9.1 48.3 73 4.4 40 9.6 0.378
03:14 1016 30 845 24.95 8.7 47.7 74 4.4 40 9.26 0.365
03:15 1016 30 845 24.95 8.5 47.2 75 4.4 39.8 9.04 0.356
03:16 1016 30 845 24.95 8.3 46.9 76 4.3 39.7 8.81 0.347
03:17 1016 30 845 24.95 8.2 46.7 77 4.4 39.9 8.62 0.339
03:18 1016 30 845 24.95 8.1 46.5 77 4.3 39.8 8.55 0.337
03:19 1016 30 845 24.95 8 46.5 75 3.9 39 8.48 0.334
03:20 1016 30 845 24.95 8.3 47 70 3.2 37.8 8.59 0.338
03:21 1016 30 845 24.95 9.1 48.4 68 3.6 38.5 9.22 0.363
03:22 1016 30 845 24.95 9.4 49 70 4.2 39.6 9.68 0.381
03:23 1016 30 845 24.95 9.5 49.2 65 3.2 37.8 9.8 0.386
03:24 1016 30 845 24.95 10.2 50.3 61 3 37.5 10.24 0.403
03:25 1016 30 845 24.95 10.7 51.2 64 4.3 39.7 10.79 0.425
03:26 1016 30 845 24.95 10.5 50.8 63 3.7 38.7 10.7 0.421
03:27 1016 30 845 24.95 10.6 51 59 2.8 37.1 10.73 0.422
03:28 1016 30 845 24.95 10.7 51.2 63 4 39.1 10.85 0.427
03:29 1016 30 845 24.95 10.1 50.1 63 3.4 38.1 10.33 0.407
03:30 1016 30 845 24.95 9.8 49.6 63 3.2 37.7 9.97 0.393
03:31 1016 30 845 24.95 9.6 49.3 65 3.3 37.9 9.71 0.382
03:32 1016 30 845 24.95 9.3 48.7 67 3.4 38.2 9.41 0.37
03:33 1016 30 845 24.95 8.9 48.1 66 2.9 37.2 9.17 0.361
03:34 1016 30 845 24.95 9.2 48.5 65 3 37.4 9.32 0.367
03:35 1016 30 845 24.95 9.3 48.7 65 3 37.4 9.45 0.372
03:36 1016 30 845 24.95 9.3 48.8 64 2.8 37.1 9.5 0.374
03:37 1016 30 845 24.95 9.4 48.9 65 3.2 37.8 9.59 0.378
03:38 1016 30 845 24.95 9.2 48.5 67 3.4 38.1 9.45 0.372
03:39 1016 30 845 24.95 8.8 47.9 69 3.5 38.3 9.17 0.361
03:40 1016 30 845 24.95 8.4 47.2 71 3.4 38.1 8.83 0.348
03:41 1016 30 845 24.95 8.2 46.7 72 3.5 38.2 8.55 0.337
03:42 1016 30 845 24.95 8 46.4 73 3.4 38.2 8.36 0.329
03:43 1016 30 845 24.95 7.9 46.2 74 3.5 38.2 8.23 0.324
03:44 1016 30 845 24.95 7.8 46.1 74 3.5 38.3 8.22 0.324
03:45 1016 30 845 24.95 7.8 46 75 3.5 38.4 8.16 0.321
03:46 1016 30 845 24.95 7.7 45.9 75 3.6 38.5 8.1 0.319
03:47 1016 30 845 24.95 7.6 45.7 76 3.6 38.6 7.96 0.313
03:48 1016 30 845 24.95 7.5 45.5 76 3.6 38.4 7.88 0.31
03:49 1016 30 845 24.95 7.4 45.3 77 3.6 38.4 7.81 0.307
03:50 1016 30 845 24.95 7.4 45.3 77 3.6 38.4 7.76 0.306
03:51 1016 30 845 24.95 7.4 45.3 76 3.5 38.3 7.76 0.306
03:52 1016 30 845 24.95 7.4 45.3 76 3.4 38.1 7.75 0.305
03:53 1016 30 845 24.95 7.5 45.5 74 3.1 37.6 7.8 0.307
03:54 1016 30 845 24.95 7.8 46 72 3 37.4 7.94 0.313
03:55 1016 30 845 24.95 8 46.4 70 2.8 37.1 8.15 0.321
03:56 1016 30 845 24.95 8.4 47 67 2.7 36.9 8.45 0.333
03:57 1016 30 845 24.95 8.7 47.7 66 2.7 36.9 8.69 0.342
03:58 1016 30 845 24.95 8.9 48.1 64 2.5 36.5 9.01 0.355
03:59 1016 30 845 24.95 9.3 48.7 62 2.5 36.5 9.36 0.369
04:00 1016 30 845 24.95 9.4 49 63 2.8 37 9.57 0.377
04:01 1016 30 845 24.95 9.4 49 64 2.9 37.3 9.62 0.379
04:02 1016 30 845 24.95 9.3 48.7 64 2.8 37.1 9.51 0.374
04:03 1016 30 845 24.95 9.2 48.6 64 2.9 37.2 9.5 0.374
04:04 1016 30 845 24.95 9.2 48.5 65 2.9 37.2 9.42 0.371
04:05 1016 30 845 24.95 9 48.1 66 3 37.5 9.29 0.366
04:06 1016 30 845 24.95 8.7 47.7 66 2.8 37.1 9.13 0.359
04:07 1016 30 845 24.95 8.8 47.8 66 2.8 37 9.13 0.359
04:08 1016 30 845 24.95 8.8 47.9 66 2.7 36.9 9.18 0.361
04:09 1016 30 845 24.95 8.8 47.8 65 2.7 36.8 9.14 0.36
04:10 1016 30 845 24.95 8.8 47.8 64 2.4 36.4 9.13 0.359
04:11 1016 30 845 24.95 9.1 48.3 63 2.4 36.3 9.35 0.368
04:12 1016 30 845 24.95 9.3 48.7 64 2.9 37.2 9.55 0.376
04:13 1016 30 845 24.95 9.1 48.4 66 3.1 37.6 9.43 0.371
04:14 1016 30 845 24.95 8.7 47.7 67 3 37.4 9.14 0.36
04:15 1016 30 845 24.95 8.4 47.1 69 3.1 37.6 8.77 0.345
04:16 1016 30 845 24.95 8.1 46.5 70 3 37.5 8.47 0.333
04:17 1016 30 845 24.95 8 46.4 70 3 37.4 8.42 0.331
04:18 1016 30 845 24.95 8.1 46.5 71 3.2 37.8 8.45 0.333
04:19 1016 30 845 24.95 7.9 46.1 72 3.2 37.8 8.25 0.325
04:20 1016 30 845 24.95 7.7 45.8 74 3.3 38 8.02 0.316
04:21 1016 30 845 24.95 7.5 45.5 74 3.2 37.8 7.87 0.31
04:22 1016 30 845 24.95 7.5 45.4 74 3.2 37.8 7.83 0.308
04:23 1016 30 845 24.95 7.4 45.3 74 3.2 37.7 7.8 0.307
04:24 1016 30 845 24.95 7.4 45.4 74 3.2 37.7 7.82 0.308
04:25 1016 30 845 24.95 7.5 45.5 73 2.9 37.2 7.8 0.307
04:26 1016 30 845 24.95 7.6 45.7 72 2.9 37.3 7.91 0.311
04:27 1016 30 845 24.95 7.7 45.9 72 3 37.3 8 0.315
04:28 1016 30 845 24.95 7.8 46 72 3.1 37.6 8.08 0.318
04:29 1016 30 845 24.95 7.7 45.9 72 3.1 37.5 8.04 0.317
04:30 1016 30 845 24.95 7.7 45.8 72 2.9 37.2 8.01 0.315
04:31 1016 30 845 24.95 7.7 45.8 71 2.8 37.1 7.99 0.315
04:32 1016 30 845 24.95 7.8 46.1 71 2.9 37.3 8.1 0.319
04:33 1016 30 845 24.95 7.9 46.2 71 2.9 37.2 8.17 0.322
04:34 1016 30 845 24.95 8 46.4 70 2.9 37.3 8.24 0.324
04:35 1016 30 845 24.95 8 46.4 71 3.1 37.5 8.28 0.326
04:36 1016 30 845 24.95 7.9 46.3 72 3.1 37.6 8.23 0.324
04:37 1016 30 845 24.95 7.9 46.3 71 3.1 37.5 8.22 0.324
04:38 1016 30 845 24.95 8 46.3 71 3 37.4 8.29 0.326
04:39 1016 30 845 24.95 8 46.4 70 3 37.3 8.27 0.326
04:40 1016 30 845 24.95 8 46.4 70 2.8 37.1 8.29 0.326
04:41 1016 30 845 24.95 8 46.4 69 2.6 36.7 8.26 0.325
04:42 1016 30 845 24.95 8.2 46.7 68 2.6 36.6 8.45 0.333
04:43 1016 30 845 24.95 8.4 47.1 67 2.6 36.6 8.63 0.34
04:44 1016 30 845 24.95 8.5 47.2 67 2.8 37 8.73 0.344
04:45 1016 30 845 24.95 8.4 47.2 67 2.7 36.9 8.68 0.342
04:46 1016 30 845 24.95 8.4 47.2 68 2.8 37.1 8.67 0.341
04:47 1016 30 845 24.95 8.4 47.2 67 2.7 36.8 8.68 0.342
04:48 1016 30 845 24.95 8.4 47.2 66 2.5 36.6 8.7 0.343
04:49 1016 30 845 24.95 8.6 47.4 66 2.6 36.6 8.83 0.348
04:50 1016 30 845 24.95 8.7 47.6 66 2.7 36.8 8.86 0.349
04:51 1016 30 845 24.95 8.6 47.5 65 2.5 36.5 8.89 0.35
04:52 1016 30 845 24.95 8.7 47.6 65 2.6 36.6 8.9 0.35
04:53 1016 30 845 24.95 8.7 47.7 65 2.4 36.4 8.96 0.353
04:54 1016 30 845 24.95 8.7 47.7 65 2.7 36.8 9.01 0.355
04:55 1016 30 845 24.95 8.6 47.5 67 2.9 37.1 8.96 0.353
04:56 1016 30 845 24.95 8.4 47.1 67 2.7 36.8 8.74 0.344
04:57 1016 30 845 24.95 8.3 47 66 2.5 36.4 8.73 0.344
04:58 1016 30 845 24.95 8.5 47.3 66 2.5 36.5 8.82 0.347
04:59 1016 30 845 24.95 8.6 47.4 65 2.4 36.3 8.86 0.349
05:00 1016 30 845 24.95 8.7 47.6 65 2.5 36.6 8.89 0.35
05:01 1016 30 845 24.95 8.6 47.5 66 2.6 36.8 8.93 0.352
05:02 1016 30 845 24.95 8.7 47.6 65 2.5 36.4 8.94 0.352
05:03 1016 30 845 24.95 8.8 47.9 64 2.5 36.5 9.06 0.357
05:04 1016 30 845 24.95 8.9 48 64 2.4 36.4 9.14 0.36
05:05 1016 30 845 24.95 9 48.1 64 2.5 36.4 9.18 0.361
05:06 1016 30 845 24.95 9 48.2 64 2.6 36.6 9.26 0.365
05:07 1016 30 845 24.95 9 48.1 66 2.9 37.3 9.22 0.363
05:08 1016 30 845 24.95 8.8 47.9 65 2.7 36.8 9.16 0.361
05:09 1016 30 845 24.95 8.8 47.9 65 2.7 36.9 9.15 0.36
05:10 1016 30 845 24.95 8.8 47.9 65 2.8 37 9.13 0.359
05:11 1015 29.97 845 24.95 8.8 47.8 65 2.7 36.8 9.12 0.359
05:12 1015 29.97 845 24.95 8.8 47.8 64 2.4 36.3 9.11 0.359
05:13 1015 29.97 845 24.95 8.9 48 64 2.5 36.5 9.23 0.363
05:14 1016 30 845 24.95 8.9 48.1 65 2.7 36.9 9.24 0.364
05:15 1016 30 845 24.95 8.8 47.9 67 3.1 37.6 9.15 0.36
05:16 1016 30 845 24.95 8.6 47.5 66 2.7 36.9 8.95 0.352
05:17 1015 29.97 845 24.95 8.6 47.6 65 2.5 36.4 8.96 0.353
05:18 1016 30 845 24.95 8.9 47.9 64 2.5 36.4 9.16 0.361
05:19 1015 29.97 845 24.95 9.1 48.4 64 2.7 36.9 9.35 0.368
05:20 1015 29.97 845 24.95 9.2 48.5 63 2.6 36.7 9.42 0.371
05:21 1015 29.97 845 24.95 9.3 48.7 62 2.5 36.4 9.54 0.376
05:22 1015 29.97 845 24.95 9.4 48.9 62 2.6 36.6 9.63 0.379
05:23 1016 30 845 24.95 9.5 49 62 2.6 36.6 9.72 0.383
05:24 1016 30 845 24.95 9.6 49.2 61 2.5 36.6 9.84 0.387
05:25 1015 29.97 845 24.95 9.6 49.3 62 2.8 37.1 9.91 0.39
05:26 1016 30 845 24.95 9.5 49.1 63 2.9 37.2 9.83 0.387
05:27 1015 29.97 845 24.95 9.4 48.9 64 2.9 37.2 9.76 0.384
05:28 1015 29.97 845 24.95 9.4 48.8 63 2.8 37 9.7 0.382
05:29 1015 29.97 845 24.95 9.4 48.9 62 2.5 36.5 9.68 0.381
05:30 1015 29.97 845 24.95 9.6 49.3 62 2.6 36.7 9.83 0.387
05:31 1015 29.97 845 24.95 9.7 49.5 60 2.5 36.5 9.97 0.393
05:32 1015 29.97 845 24.95 10 49.9 59 2.4 36.4 10.17 0.4
05:33 1015 29.97 845 24.95 10.2 50.3 59 2.5 36.5 10.36 0.408
05:34 1015 29.97 845 24.95 10.3 50.5 59 2.7 36.9 10.5 0.413
05:35 1015 29.97 845 24.95 10.2 50.4 61 3 37.4 10.47 0.412
05:36 1015 29.97 845 24.95 10 50 62 3 37.4 10.28 0.405
05:37 1015 29.97 845 24.95 9.8 49.6 61 2.7 36.9 10.17 0.4
05:38 1015 29.97 845 24.95 9.8 49.7 62 3 37.4 10.15 0.4
05:39 1015 29.97 845 24.95 9.7 49.4 63 3 37.4 10.06 0.396
05:40 1015 29.97 845 24.95 9.6 49.3 63 3 37.4 9.95 0.392
05:41 1015 29.97 845 24.95 9.6 49.3 62 2.8 37 9.94 0.391
05:42 1015 29.97 845 24.95 9.7 49.5 62 2.8 37.1 10.05 0.396
05:43 1015 29.97 845 24.95 9.8 49.6 62 2.8 37.1 10.08 0.397
05:44 1015 29.97 845 24.95 9.8 49.7 62 2.9 37.2 10.15 0.4
05:45 1015 29.97 845 24.95 9.9 49.8 62 2.9 37.2 10.19 0.401
05:46 1015 29.97 845 24.95 9.9 49.7 62 3 37.4 10.21 0.402
05:47 1015 29.97 845 24.95 9.8 49.6 63 3 37.4 10.1 0.398
05:48 1015 29.97 845 24.95 9.7 49.4 62 2.9 37.2 10.05 0.396
05:49 1015 29.97 845 24.95 9.7 49.4 62 2.8 37.1 10.01 0.394
05:50 1015 29.97 845 24.95 9.7 49.4 62 2.8 37 10.01 0.394
05:51 1015 29.97 845 24.95 9.7 49.5 61 2.7 36.8 10.06 0.396
05:52 1015 29.97 845 24.95 9.8 49.6 61 2.7 36.9 10.17 0.4
05:53 1015 29.97 845 24.95 9.9 49.7 61 2.8 37.1 10.21 0.402
05:54 1015 29.97 845 24.95 9.8 49.7 62 3 37.3 10.15 0.4
05:55 1015 29.97 845 24.95 9.6 49.4 63 3.1 37.5 10.01 0.394
05:56 1015 29.97 845 24.95 9.6 49.2 62 2.7 36.9 9.93 0.391
05:57 1015 29.97 845 24.95 9.7 49.4 61 2.6 36.7 10 0.394
05:58 1015 29.97 844 24.92 9.8 49.7 60 2.5 36.5 10.14 0.399
05:59 1015 29.97 845 24.95 10 50 59 2.5 36.5 10.32 0.406
06:00 1015 29.97 845 24.95 10.1 50.2 59 2.6 36.7 10.41 0.41
06:01 1015 29.97 845 24.95 10.2 50.3 59 2.6 36.7 10.49 0.413
06:02 1015 29.97 845 24.95 10.2 50.4 59 2.5 36.5 10.52 0.414
06:03 1015 29.97 845 24.95 10.3 50.6 58 2.5 36.5 10.63 0.419
06:04 1015 29.97 844 24.92 10.4 50.7 58 2.4 36.4 10.68 0.42
06:05 1015 29.97 845 24.95 10.5 50.9 58 2.6 36.7 10.76 0.424
06:06 1015 29.97 845 24.95 10.5 51 57 2.5 36.5 10.87 0.428
06:07 1015 29.97 844 24.92 10.5 51 58 2.7 36.9 10.83 0.426
06:08 1015 29.97 844 24.92 10.4 50.8 60 3.1 37.5 10.75 0.423
06:09 1015 29.97 845 24.95 10.1 50.2 62 3.2 37.8 10.46 0.412
06:10 1015 29.97 845 24.95 9.8 49.6 63 3 37.5 10.17 0.4
06:11 1015 29.97 844 24.92 9.6 49.4 63 2.9 37.2 9.97 0.393
06:12 1015 29.97 844 24.92 9.6 49.3 63 2.9 37.3 9.97 0.393
06:13 1015 29.97 844 24.92 9.6 49.3 63 2.9 37.3 9.97 0.393
06:14 1015 29.97 844 24.92 9.6 49.3 63 2.9 37.3 9.97 0.393
06:15 1015 29.97 844 24.92 9.5 49.1 64 3 37.5 9.88 0.389
06:16 1015 29.97 845 24.95 9.4 48.9 64 3 37.5 9.8 0.386
06:17 1015 29.97 844 24.92 9.3 48.8 64 2.9 37.2 9.69 0.381
06:18 1015 29.97 845 24.95 9.3 48.8 64 3 37.3 9.69 0.381
06:19 1015 29.97 845 24.95 9.3 48.8 65 3 37.4 9.69 0.381
06:20 1015 29.97 844 24.92 9.3 48.7 65 3 37.4 9.64 0.38
06:21 1015 29.97 844 24.92 9.3 48.7 65 3 37.5 9.63 0.379
06:22 1015 29.97 844 24.92 9.2 48.5 64 2.7 36.9 9.56 0.376
06:23 1015 29.97 845 24.95 9.2 48.6 65 2.9 37.2 9.63 0.379
06:24 1015 29.97 844 24.92 9.2 48.6 65 3 37.4 9.57 0.377
06:25 1015 29.97 845 24.95 9.2 48.5 65 3 37.5 9.54 0.376
06:26 1015 29.97 844 24.92 9.2 48.5 65 2.9 37.2 9.52 0.375
06:27 1015 29.97 844 24.92 9.3 48.7 65 3 37.4 9.62 0.379
06:28 1015 29.97 844 24.92 9.3 48.7 64 2.8 37.1 9.64 0.38
06:29 1015 29.97 844 24.92 9.4 48.9 64 3 37.5 9.72 0.383
06:30 1015 29.97 844 24.92 9.4 48.8 64 3 37.4 9.73 0.383
06:31 1015 29.97 844 24.92 9.4 48.9 65 3.2 37.8 9.77 0.385
06:32 1015 29.97 844 24.92 9.3 48.7 66 3.4 38.1 9.65 0.38
06:33 1015 29.97 844 24.92 9.2 48.5 65 3.1 37.5 9.55 0.376
06:34 1015 29.97 844 24.92 9.3 48.7 66 3.2 37.8 9.63 0.379
06:35 1015 29.97 844 24.92 9.3 48.7 66 3.2 37.8 9.63 0.379
06:36 1015 29.97 844 24.92 9.3 48.7 66 3.3 37.9 9.58 0.377
06:37 1015 29.97 844 24.92 9.1 48.4 67 3.3 37.9 9.49 0.374
06:38 1015 29.97 844 24.92 9.1 48.5 67 3.3 37.9 9.47 0.373
06:39 1015 29.97 844 24.92 9.1 48.4 68 3.5 38.3 9.44 0.372
06:40 1015 29.97 844 24.92 8.9 48 69 3.5 38.3 9.3 0.366
06:41 1015 29.97 844 24.92 8.9 47.9 69 3.5 38.2 9.25 0.364
06:42 1015 29.97 844 24.92 8.9 48.1 68 3.5 38.2 9.29 0.366
06:43 1015 29.97 844 24.92 9 48.2 67 3.3 38 9.36 0.369
06:44 1015 29.97 844 24.92 9.2 48.6 67 3.4 38.1 9.5 0.374
06:45 1015 29.97 844 24.92 9.4 48.8 65 3.2 37.7 9.67 0.381
06:46 1015 29.97 844 24.92 9.7 49.4 64 3.3 38 9.98 0.393
06:47 1015 29.97 844 24.92 10 50 64 3.5 38.2 10.24 0.403
06:48 1015 29.97 844 24.92 10.2 50.4 63 3.4 38.2 10.5 0.413
06:49 1015 29.97 844 24.92 10.4 50.7 62 3.5 38.3 10.7 0.421
06:50 1015 29.97 844 24.92 10.5 51 63 3.8 38.8 10.81 0.426
06:51 1015 29.97 844 24.92 10.5 50.8 64 4.1 39.3 10.79 0.425
06:52 1015 29.97 844 24.92 10.3 50.5 65 3.9 39.1 10.62 0.418
06:53 1015 29.97 844 24.92 10.2 50.3 66 4.1 39.4 10.51 0.414
06:54 1015 29.97 844 24.92 10 50.1 65 3.9 39 10.42 0.41
06:55 1015 29.97 844 24.92 10.1 50.1 66 3.9 39.1 10.42 0.41
06:56 1015 29.97 844 24.92 10.1 50.2 66 4.2 39.5 10.42 0.41
06:57 1015 29.97 844 24.92 10.1 50.1 65 3.9 38.9 10.48 0.413
06:58 1015 29.97 844 24.92 10.2 50.3 66 4.1 39.3 10.53 0.415
06:59 1015 29.97 844 24.92 10.2 50.3 66 4.1 39.4 10.57 0.416
07:00 1015 29.97 844 24.92 10.2 50.4 64 3.8 38.9 10.62 0.418
07:01 1015 29.97 844 24.92 10.6 51 63 3.8 38.8 10.9 0.429
07:02 1015 29.97 844 24.92 10.9 51.6 61 3.7 38.7 11.22 0.442
07:03 1015 29.97 844 24.92 11.1 52 60 3.7 38.7 11.44 0.45
07:04 1015 29.97 844 24.92 11.3 52.3 61 4.1 39.4 11.62 0.457
07:05 1015 29.97 844 24.92 11.1 52.1 62 4.2 39.6 11.47 0.452
07:06 1015 29.97 844 24.92 11 51.8 62 4.1 39.4 11.43 0.45
07:07 1015 29.97 844 24.92 11.1 51.9 63 4.2 39.6 11.44 0.45
07:08 1015 29.97 844 24.92 11.1 52 63 4.3 39.7 11.45 0.451
07:09 1015 29.97 844 24.92 11.1 52 62 4.1 39.4 11.53 0.454
07:10 1015 29.97 844 24.92 11.4 52.4 59 3.8 38.8 11.68 0.46
07:11 1015 29.97 844 24.92 11.7 53 58 3.7 38.6 11.97 0.471
07:12 1015 29.97 844 24.92 12 53.7 57 3.9 39 12.28 0.483
07:13 1015 29.97 844 24.92 12.2 53.9 58 4.2 39.5 12.41 0.489
07:14 1015 29.97 844 24.92 12.3 54.1 58 4.3 39.7 12.52 0.493
07:15 1015 29.97 844 24.92 12.4 54.2 57 4.2 39.6 12.65 0.498
07:16 1015 29.97 844 24.92 12.5 54.5 57 4.2 39.6 12.78 0.503
07:17 1015 29.97 844 24.92 12.7 54.9 56 4.2 39.6 13 0.512
07:18 1015 29.97 844 24.92 13 55.3 55 4.2 39.5 13.29 0.523
07:19 1015 29.97 844 24.92 13.2 55.8 53 3.9 39 13.52 0.532
07:20 1015 29.97 844 24.92 13.5 56.3 52 4 39.2 13.79 0.543
07:21 1015 29.97 844 24.92 13.6 56.5 53 4.4 39.8 13.93 0.548
07:22 1015 29.97 844 24.92 13.7 56.6 52 4.2 39.5 14.03 0.552
07:23 1015 29.97 844 24.92 13.7 56.7 53 4.4 39.9 14.08 0.554
07:24 1015 29.97 844 24.92 13.7 56.7 51 3.9 38.9 14.1 0.555
07:25 1015 29.97 844 24.92 14 57.2 50 3.8 38.9 14.34 0.565
07:26 1015 29.97 844 24.92 14.5 58 47 3.3 38 14.87 0.585
07:27 1015 29.97 844 24.92 15.1 59.2 44 3.2 37.7 15.53 0.611
07:28 1015 29.97 844 24.92 15.7 60.2 46 4.1 39.3 15.99 0.63
07:29 1015 29.97 844 24.92 15.9 60.6 46 4.3 39.8 16.2 0.638
07:30 1015 29.97 844 24.92 15.8 60.4 47 4.6 40.3 16.17 0.637
07:31 1015 29.97 844 24.92 15.5 59.9 46 3.9 39.1 15.96 0.628
07:32 1015 29.97 844 24.92 15.7 60.3 42 3 37.4 16.18 0.637
07:33 1015 29.97 844 24.92 16.2 61.2 43 3.9 38.9 16.68 0.657
07:34 1015 29.97 844 24.92 16.4 61.6 42 3.6 38.5 16.83 0.663
07:35 1015 29.97 844 24.92 16.3 61.4 45 4.5 40 16.79 0.661
07:36 1015 29.97 844 24.92 16 60.8 47 4.9 40.8 16.48 0.649
07:37 1015 29.97 844 24.92 15.5 59.8 47 4.3 39.8 15.96 0.628
07:38 1015 29.97 844 24.92 15.3 59.6 49 4.7 40.4 15.74 0.62
07:39 1015 29.97 844 24.92 15.2 59.4 50 4.8 40.7 15.64 0.616
07:40 1015 29.97 844 24.92 15.1 59.1 51 5 41 15.47 0.609
07:41 1015 29.97 844 24.92 15 58.9 49 4.5 40.1 15.38 0.606
07:42 1015 29.97 844 24.92 14.9 58.8 52 5.3 41.6 15.35 0.604
07:43 1015 29.97 844 24.92 14.9 58.8 52 5.1 41.2 15.3 0.602
07:44 1015 29.97 844 24.92 14.9 58.8 51 4.9 40.8 15.3 0.602
07:45 1015 29.97 844 24.92 14.9 58.8 51 4.9 40.9 15.3 0.602
07:46 1015 29.97 844 24.92 14.9 58.9 52 5.3 41.5 15.35 0.604
07:47 1015 29.97 844 24.92 15.1 59.1 51 5.2 41.3 15.5 0.61
07:48 1015 29.97 844 24.92 15.3 59.6 50 5.1 41.1 15.72 0.619
07:49 1015 29.97 844 24.92 15.6 60 49 4.9 40.7 16 0.63
07:50 1015 29.97 844 24.92 15.8 60.5 48 5 41 16.26 0.64
07:51 1015 29.97 844 24.92 16.2 61.2 43 3.8 38.9 16.75 0.659
07:52 1015 29.97 844 24.92 16.8 62.3 45 5 41.1 17.37 0.684
07:53 1015 29.97 844 24.92 17.1 62.8 43 4.6 40.3 17.6 0.693
07:54 1015 29.97 844 24.92 17.2 63 45 5.4 41.7 17.67 0.696
07:55 1015 29.97 844 24.92 17.3 63.1 46 5.5 41.9 17.73 0.698
07:56 1015 29.97 844 24.92 17.3 63.2 44 5.2 41.3 17.78 0.7
07:57 1015 29.97 844 24.92 17.4 63.3 45 5.5 41.9 17.92 0.706
07:58 1015 29.97 844 24.92 17.6 63.7 41 4.4 40 18.14 0.714
07:59 1015 29.97 844 24.92 18.1 64.6 39 4 39.3 18.57 0.731
08:00 1015 29.97 844 24.92 18.5 65.4 34 2.7 36.9 19.03 0.749
08:01 1015 29.97 844 24.92 19.1 66.4 36 3.6 38.6 19.6 0.772
08:02 1015 29.97 844 24.92 19.4 67 37 4.4 40 19.89 0.783
08:03 1015 29.97 844 24.92 19.5 67.1 39 5.3 41.5 19.95 0.785
08:04 1015 29.97 844 24.92 19.4 66.9 41 6 42.7 19.93 0.785
08:05 1015 29.97 844 24.92 19.3 66.7 41 6 42.7 19.9 0.783
08:06 1015 29.97 844 24.92 19.2 66.6 41 5.8 42.4 19.89 0.783
08:07 1015 29.97 844 24.92 19.1 66.4 43 6.5 43.7 19.73 0.777
08:08 1015 29.97 844 24.92 18.9 66 43 6.1 42.9 19.47 0.767
08:09 1015 29.97 844 24.92 18.8 65.8 40 5.1 41.1 19.35 0.762
08:10 1015 29.97 844 24.92 18.8 65.8 44 6.4 43.6 19.35 0.762
08:11 1015 29.97 844 24.92 18.8 65.9 42 5.8 42.5 19.46 0.766
08:12 1015 29.97 844 24.92 19 66.2 39 5 41.1 19.57 0.77
08:13 1015 29.97 844 24.92 19.2 66.5 40 5.4 41.7 19.78 0.779
08:14 1015 29.97 844 24.92 19.4 66.9 39 5.2 41.4 19.96 0.786
08:15 1015 29.97 844 24.92 19.6 67.3 40 5.8 42.5 20.14 0.793
08:16 1015 29.97 844 24.92 19.8 67.7 39 5.5 41.9 20.36 0.802
08:17 1015 29.97 844 24.92 20.1 68.1 37 5.1 41.2 20.54 0.809
08:18 1015 29.97 844 24.92 20.2 68.4 39 5.9 42.6 20.75 0.817
08:19 1015 29.97 844 24.92 20.3 68.6 39 6.3 43.3 20.88 0.822
08:20 1015 29.97 844 24.92 20.3 68.6 40 6.3 43.4 20.88 0.822
08:21 1015 29.97 844 24.92 20.3 68.6 38 5.9 42.5 20.86 0.821
08:22 1015 29.97 844 24.92 20.4 68.7 40 6.6 43.8 20.8 0.819
08:23 1015 29.97 844 24.92 20.5 68.8 37 5.5 41.9 20.86 0.821
08:24 1015 29.97 844 24.92 20.5 69 38 5.7 42.3 20.89 0.822
08:25 1015 29.97 844 24.92 20.6 69 41 7.1 44.8 20.89 0.822
08:26 1015 29.97 844 24.92 20.6 69.2 45 8.5 47.2 20.92 0.824
08:27 1015 29.97 844 24.92 20.7 69.2 39 6.3 43.3 20.93 0.824
08:28 1015 29.97 844 24.92 20.7 69.3 42 7.7 45.8 20.92 0.824
08:29 1015 29.97 844 24.92 20.8 69.4 38 6.2 43.1 20.92 0.824
08:30 1015 29.97 844 24.92 20.7 69.3 40 6.7 44.1 20.87 0.822
08:31 1015 29.97 844 24.92 20.7 69.3 40 6.9 44.4 20.88 0.822
08:32 1015 29.97 844 24.92 20.8 69.4 45 8.7 47.6 20.98 0.826
08:33 1015 29.97 844 24.92 20.9 69.5 40 6.8 44.2 21.15 0.833
08:34 1015 29.97 844 24.92 21 69.8 42 7.6 45.7 21.26 0.837
08:35 1015 29.97 844 24.92 21.1 69.9 44 8.5 47.3 21.25 0.837
08:36 1015 29.97 844 24.92 21 69.8 46 9.1 48.4 21.02 0.828
08:37 1015 29.97 844 24.92 20.7 69.2 50 10.1 50.3 20.59 0.811
08:38 1015 29.97 844 24.92 20.2 68.4 50 9.7 49.4 20.11 0.792
08:39 1015 29.97 844 24.92 19.7 67.5 50 9.2 48.6 19.65 0.774
08:40 1015 29.97 844 24.92 19.3 66.7 43 6.4 43.6 19.22 0.757
08:41 1015 29.97 845 24.95 18.9 66 45 6.7 44.1 18.88 0.743
08:42 1015 29.97 845 24.95 18.6 65.5 43 5.9 42.6 18.63 0.733
08:43 1015 29.97 845 24.95 18.5 65.2 43 5.8 42.4 18.54 0.73
08:44 1015 29.97 845 24.95 18.5 65.2 44 6 42.9 18.54 0.73
08:45 1015 29.97 845 24.95 18.4 65.2 48 7.2 45 18.44 0.726
08:46 1015 29.97 845 24.95 18.3 65 44 6.1 42.9 18.35 0.722
08:47 1015 29.97 845 24.95 18.2 64.8 42 5.1 41.2 18.3 0.72
08:48 1015 29.97 845 24.95 18.1 64.6 48 6.9 44.4 18.26 0.719
08:49 1015 29.97 845 24.95 18.1 64.6 43 5.4 41.7 18.35 0.722
08:50 1015 29.97 845 24.95 18.2 64.8 48 7.2 44.9 18.44 0.726
08:51 1015 29.97 845 24.95 18.3 64.9 54 8.9 47.9 18.54 0.73
08:52 1015 29.97 845 24.95 18.4 65.1 46 6.7 44 18.65 0.734
08:53 1015 29.97 845 24.95 18.5 65.2 48 7.5 45.4 18.59 0.732
08:54 1015 29.97 845 24.95 18.4 65.2 48 7.4 45.4 18.58 0.731
08:55 1015 29.97 845 24.95 18.4 65.1 44 6.1 42.9 18.55 0.73
08:56 1015 29.97 845 24.95 18.2 64.8 45 6.2 43.2 18.48 0.728
08:57 1015 29.97 844 24.92 18.2 64.8 44 5.8 42.4 18.41 0.725
08:58 1015 29.97 844 24.92 18.2 64.7 47 6.7 44 18.38 0.724
08:59 1015 29.97 845 24.95 18.2 64.8 50 7.7 45.8 18.47 0.727
09:00 1015 29.97 845 24.95 18.4 65 48 7.4 45.3 18.66 0.735
09:01 1015 29.97 845 24.95 18.4 65.1 44 5.9 42.6 18.81 0.741
09:02 1015 29.97 845 24.95 18.4 65.2 51 8.2 46.8 18.76 0.739
09:03 1015 29.97 844 24.92 18.5 65.3 41 5.1 41.3 18.78 0.739
09:04 1015 29.97 845 24.95 18.5 65.3 44 6.2 43.1 18.71 0.737
09:05 1015 29.97 845 24.95 18.6 65.5 45 6.7 44 18.9 0.744
09:06 1015 29.97 845 24.95 18.7 65.7 44 6.3 43.3 19.01 0.748
09:07 1015 29.97 845 24.95 18.8 65.8 44 6.4 43.6 18.99 0.748
09:08 1015 29.97 845 24.95 18.8 65.8 42 5.9 42.5 18.98 0.747
09:09 1015 29.97 845 24.95 18.8 65.9 41 5.5 41.8 18.95 0.746
09:10 1015 29.97 845 24.95 18.8 65.9 41 5.4 41.8 18.92 0.745
09:11 1015 29.97 845 24.95 18.9 65.9 46 7.1 44.7 19.04 0.75
09:12 1015 29.97 845 24.95 18.9 66.1 45 6.9 44.4 19.15 0.754
09:13 1015 29.97 845 24.95 19 66.1 43 6.1 43 19.12 0.753
09:14 1015 29.97 845 24.95 19 66.2 47 7.6 45.7 19.15 0.754
09:15 1016 30 845 24.95 19.1 66.4 39 4.9 40.8 19.32 0.761
09:16 1016 30 845 24.95 19 66.2 44 6.5 43.7 19.3 0.76
09:17 1016 30 845 24.95 19.1 66.4 38 4.7 40.5 19.41 0.764
09:18 1016 30 845 24.95 19.3 66.7 39 5.2 41.4 19.5 0.768
09:19 1016 30 845 24.95 19.5 67.1 43 6.7 44 19.7 0.776
09:20 1015 29.97 845 24.95 19.6 67.2 43 6.6 43.9 19.84 0.781
09:21 1015 29.97 845 24.95 19.7 67.4 36 4.4 39.9 19.9 0.783
09:22 1015 29.97 845 24.95 19.7 67.5 37 4.9 40.9 19.84 0.781
09:23 1015 29.97 845 24.95 19.8 67.7 44 7.5 45.4 19.95 0.785
09:24 1015 29.97 845 24.95 19.9 67.9 38 5.3 41.6 20.12 0.792
09:25 1015 29.97 845 24.95 20.2 68.3 41 6.6 43.8 20.27 0.798
09:26 1015 29.97 845 24.95 20.3 68.5 33 3.5 38.3 20.35 0.801
09:27 1015 29.97 845 24.95 20.3 68.5 36 4.9 40.9 20.28 0.798
09:28 1015 29.97 845 24.95 20.3 68.6 35 4.3 39.8 20.39 0.803
09:29 1015 29.97 845 24.95 20.4 68.7 43 7.5 45.5 20.55 0.809
09:30 1015 29.97 845 24.95 20.4 68.7 34 4.1 39.5 20.51 0.807
09:31 1015 29.97 845 24.95 20.4 68.7 37 5.5 42 20.5 0.807
09:32 1015 29.97 845 24.95 20.5 68.8 37 5.3 41.5 20.59 0.811
09:33 1015 29.97 845 24.95 20.6 69 32 3.6 38.5 20.75 0.817
09:34 1015 29.97 845 24.95 20.7 69.2 39 6.4 43.5 20.83 0.82
09:35 1015 29.97 845 24.95 20.8 69.4 32 3.9 39 21 0.827
09:36 1015 29.97 845 24.95 20.9 69.6 36 5.2 41.4 21.06 0.829
09:37 1015 29.97 845 24.95 20.9 69.6 38 6.1 43 21.08 0.83
09:38 1015 29.97 845 24.95 20.9 69.7 32 3.7 38.6 21.19 0.834
09:39 1015 29.97 845 24.95 21.1 69.9 31 3.3 38 21.29 0.838
09:40 1015 29.97 844 24.92 21.1 70 39 6.6 44 21.36 0.841
09:41 1015 29.97 844 24.92 21.1 70 33 4.6 40.3 21.4 0.843
09:42 1015 29.97 844 24.92 21 69.8 33 4.3 39.7 21.31 0.839
09:43 1015 29.97 845 24.95 21 69.7 32 3.9 39.1 21.28 0.838
09:44 1015 29.97 845 24.95 21.1 70 32 4 39.2 21.46 0.845
09:45 1015 29.97 844 24.92 21.2 70.2 31 3.8 38.9 21.54 0.848
09:46 1015 29.97 844 24.92 21.3 70.3 40 7.3 45.1 21.52 0.847
09:47 1015 29.97 844 24.92 21.4 70.5 38 6.5 43.7 21.71 0.855
09:48 1015 29.97 844 24.92 21.5 70.7 35 5.4 41.7 21.72 0.855
09:49 1015 29.97 844 24.92 21.5 70.7 39 7.1 44.7 21.75 0.856
09:50 1015 29.97 844 24.92 21.5 70.7 32 4.3 39.7 21.74 0.856
09:51 1015 29.97 844 24.92 21.5 70.7 37 6.4 43.5 21.72 0.855
09:52 1015 29.97 844 24.92 21.6 70.9 34 5.1 41.1 21.83 0.859
09:53 1015 29.97 844 24.92 21.8 71.2 36 6.2 43.2 22.06 0.869
09:54 1015 29.97 844 24.92 21.9 71.4 33 5 41 22.07 0.869
09:55 1015 29.97 844 24.92 21.9 71.4 35 5.8 42.4 22.05 0.868
09:56 1015 29.97 844 24.92 21.9 71.4 38 7.2 44.9 22.11 0.87
09:57 1015 29.97 844 24.92 22 71.6 34 5.7 42.3 22.24 0.876
09:58 1015 29.97 844 24.92 22.1 71.9 34 5.9 42.6 22.34 0.88
09:59 1015 29.97 844 24.92 22.2 72 32 4.9 40.8 22.41 0.882
10:00 1015 29.97 844 24.92 22.2 72 37 6.8 44.3 22.4 0.882
10:01 1015 29.97 844 24.92 22.2 72 30 4.2 39.6 22.38 0.881
10:02 1015 29.97 844 24.92 22.2 72 32 5.1 41.2 22.37 0.881
10:03 1015 29.97 844 24.92 22.3 72.1 34 6 42.9 22.46 0.884
10:04 1015 29.97 844 24.92 22.4 72.3 33 5.4 41.7 22.6 0.89
10:05 1015 29.97 844 24.92 22.6 72.6 36 6.9 44.4 22.81 0.898
10:06 1015 29.97 844 24.92 22.7 72.9 39 8.1 46.5 22.94 0.903
10:07 1015 29.97 844 24.92 22.9 73.2 33 5.9 42.6 23.14 0.911
10:08 1015 29.97 844 24.92 23 73.5 32 5.5 42 23.22 0.914
10:09 1015 29.97 844 24.92 23.2 73.7 36 7.5 45.5 23.51 0.926
10:10 1015 29.97 844 24.92 23.5 74.3 31 5.5 41.9 23.75 0.935
10:11 1015 29.97 844 24.92 23.7 74.7 39 9.2 48.6 23.97 0.944
10:12 1015 29.97 844 24.92 23.9 75.1 38 8.8 47.9 24.28 0.956
10:13 1015 29.97 844 24.92 24.2 75.5 33 6.9 44.4 24.52 0.965
10:14 1015 29.97 844 24.92 24.4 76 36 8.6 47.4 24.73 0.974
10:15 1015 29.97 844 24.92 24.7 76.5 33 7.5 45.6 25.02 0.985
10:16 1015 29.97 844 24.92 25 77 36 8.9 48.1 25.23 0.993
10:17 1015 29.97 844 24.92 25.3 77.5 35 8.9 48.1 25.4 1
10:18 1015 29.97 844 24.92 25.3 77.5 34 8.4 47.2 25.33 0.997
10:19 1015 29.97 844 24.92 24.5 76.1 31 6.7 44.1 24.44 0.962
10:20 1015 29.97 844 24.92 23.5 74.3 42 10.1 50.2 23.52 0.926
10:21 1015 29.97 844 24.92 23.1 73.5 34 6.8 44.2 23.03 0.907
10:22 1015 29.97 844 24.92 22.7 72.8 40 8.4 47.2 22.64 0.891
10:23 1015 29.97 844 24.92 22.5 72.5 35 6.3 43.3 22.48 0.885
10:24 1015 29.97 844 24.92 22.7 72.8 39 8.1 46.6 22.77 0.896
10:25 1015 29.97 844 24.92 22.6 72.7 42 9.2 48.6 22.74 0.895
10:26 1015 29.97 844 24.92 22.7 72.8 40 8.5 47.3 22.9 0.902
10:27 1015 29.97 844 24.92 22.9 73.3 45 10.5 50.9 23.13 0.911
10:28 1015 29.97 844 24.92 23.2 73.7 42 9.6 49.3 23.33 0.919
10:29 1015 29.97 844 24.92 23.5 74.2 37 8.3 46.9 23.63 0.93
10:30 1015 29.97 844 24.92 23.8 74.8 43 10.7 51.3 23.92 0.942
10:31 1015 29.97 844 24.92 24 75.3 39 9.4 48.8 24.25 0.955
10:32 1015 29.97 844 24.92 24.3 75.8 30 5.8 42.4 24.55 0.967
10:33 1015 29.97 844 24.92 24.6 76.3 39 10.1 50.2 24.84 0.978
10:34 1015 29.97 844 24.92 24.9 76.8 39 10.1 50.1 25.15 0.99
10:35 1015 29.97 844 24.92 25.2 77.3 41 11.2 52.2 25.37 0.999
10:36 1015 29.97 844 24.92 25.1 77.1 31 7.1 44.8 25.22 0.993
10:37 1015 29.97 844 24.92 24.4 76 35 8.3 47 24.51 0.965
10:38 1015 29.97 844 24.92 24 75.2 37 8.7 47.7 23.98 0.944
10:39 1015 29.97 844 24.92 23.8 74.8 39 9.3 48.7 23.75 0.935
10:40 1015 29.97 844 24.92 23.7 74.6 36 7.8 46 23.7 0.933
10:41 1015 29.97 844 24.92 23.6 74.5 41 9.9 49.9 23.7 0.933
10:42 1015 29.97 844 24.92 23.6 74.5 36 7.7 45.9 23.72 0.934
10:43 1015 29.97 844 24.92 23.6 74.5 37 8.4 47.2 23.7 0.933
10:44 1015 29.97 844 24.92 23.6 74.4 40 9.3 48.8 23.64 0.931
10:45 1015 29.97 844 24.92 23.5 74.2 38 8.6 47.4 23.59 0.929
10:46 1015 29.97 844 24.92 23.5 74.2 33 6.4 43.6 23.63 0.93
10:47 1015 29.97 844 24.92 23.5 74.3 38 8.5 47.3 23.69 0.933
10:48 1015 29.97 844 24.92 23.6 74.4 33 6.7 44.1 23.73 0.934
10:49 1015 29.97 844 24.92 23.6 74.4 36 8 46.4 23.75 0.935
10:50 1015 29.97 844 24.92 23.6 74.4 37 8.4 47 23.71 0.933
10:51 1015 29.97 844 24.92 23.4 74.1 34 6.7 44.1 23.57 0.928
10:52 1015 29.97 844 24.92 23.2 73.8 37 8.1 46.6 23.44 0.923
10:53 1015 29.97 844 24.92 23.2 73.7 39 8.6 47.4 23.42 0.922
10:54 1015 29.97 844 24.92 23.2 73.8 40 9.1 48.3 23.42 0.922
10:55 1015 29.97 844 24.92 23.2 73.8 39 8.7 47.7 23.47 0.924
10:56 1015 29.97 844 24.92 23.2 73.8 38 8.2 46.7 23.47 0.924
10:57 1015 29.97 844 24.92 23.3 73.9 36 7.7 45.9 23.48 0.924
10:58 1015 29.97 844 24.92 23.3 74 39 8.7 47.7 23.53 0.926
10:59 1015 29.97 844 24.92 23.5 74.3 36 7.9 46.2 23.68 0.932
11:00 1015 29.97 844 24.92 23.6 74.5 37 8.2 46.8 23.78 0.936
11:01 1015 29.97 844 24.92 23.6 74.5 36 7.8 46 23.78 0.936
11:02 1015 29.97 844 24.92 23.5 74.4 40 9.5 49.1 23.74 0.935
11:03 1015 29.97 844 24.92 23.6 74.4 36 7.8 46.1 23.76 0.935
11:04 1015 29.97 844 24.92 23.5 74.4 35 7.4 45.2 23.76 0.935
11:05 1015 29.97 844 24.92 23.6 74.4 35 7.6 45.6 23.8 0.937
11:06 1015 29.97 844 24.92 23.7 74.6 35 7.7 45.8 23.85 0.939
11:07 1015 29.97 844 24.92 23.7 74.7 39 9 48.3 23.92 0.942
11:08 1015 29.97 844 24.92 23.8 74.8 36 8.2 46.7 23.99 0.944
11:09 1015 29.97 844 24.92 23.9 74.9 45 11.2 52.2 24.07 0.948
11:10 1015 29.97 844 24.92 24 75.1 39 9.3 48.8 24.17 0.952
11:11 1015 29.97 844 24.92 24.1 75.4 33 7.1 44.8 24.31 0.957
11:12 1015 29.97 844 24.92 24.2 75.6 35 8.2 46.7 24.35 0.959
11:13 1015 29.97 844 24.92 24.4 75.9 33 7.2 45 24.51 0.965
11:14 1015 29.97 844 24.92 24.5 76 31 6.3 43.4 24.54 0.966
11:15 1015 29.97 844 24.92 24.5 76.2 33 7.5 45.5 24.62 0.969
11:16 1015 29.97 844 24.92 24.6 76.3 32 7.2 44.9 24.71 0.973
11:17 1015 29.97 844 24.92 24.6 76.4 37 9.3 48.8 24.81 0.977
11:18 1015 29.97 844 24.92 24.7 76.5 35 8.6 47.6 24.9 0.98
11:19 1015 29.97 844 24.92 24.9 76.8 31 6.7 44 25.04 0.986
11:20 1015 29.97 844 24.92 25 77 29 6.2 43.1 25.04 0.986
11:21 1015 29.97 844 24.92 25 77 31 6.8 44.2 25.03 0.985
11:22 1015 29.97 844 24.92 25 77.1 35 8.7 47.7 25.08 0.987
11:23 1015 29.97 844 24.92 25.1 77.1 36 9.3 48.7 25.13 0.989
11:24 1015 29.97 844 24.92 25.1 77.3 33 7.9 46.3 25.19 0.992
11:25 1015 29.97 844 24.92 25.1 77.3 29 6 42.8 25.18 0.991
11:26 1015 29.97 844 24.92 25.1 77.2 32 7.5 45.5 25.2 0.992
11:27 1015 29.97 844 24.92 25.2 77.3 29 6.3 43.4 25.26 0.994
11:28 1015 29.97 844 24.92 25.2 77.3 37 9.7 49.4 25.23 0.993
11:29 1015 29.97 844 24.92 25.2 77.3 32 7.4 45.4 25.18 0.991
11:30 1015 29.97 844 24.92 25.2 77.4 32 7.6 45.8 25.24 0.994
11:31 1015 29.97 844 24.92 25.3 77.5 35 9.1 48.4 25.25 0.994
11:32 1015 29.97 844 24.92 25.3 77.6 29 6.4 43.4 25.29 0.996
11:33 1015 29.97 844 24.92 25.3 77.6 35 8.9 48 25.33 0.997
11:34 1015 29.97 844 24.92 25.4 77.6 37 9.7 49.5 25.41 1
11:35 1015 29.97 844 24.92 25.5 77.9 33 8.5 47.3 25.59 1.007
11:36 1015 29.97 844 24.92 25.7 78.2 33 8.3 46.9 25.74 1.013
11:37 1015 29.97 844 24.92 25.8 78.4 36 9.7 49.5 25.91 1.02
11:38 1015 29.97 844 24.92 25.9 78.6 35 9.4 49 26 1.024
11:39 1015 29.97 844 24.92 26 78.7 38 11 51.8 26.16 1.03
11:40 1015 29.97 844 24.92 26.2 79.1 30 7.3 45.1 26.31 1.036
11:41 1015 29.97 844 24.92 26.2 79.2 30 7.3 45.2 26.29 1.035
11:42 1015 29.97 844 24.92 26.3 79.3 33 9 48.3 26.4 1.039
11:43 1015 29.97 844 24.92 26.4 79.4 32 8.5 47.2 26.44 1.041
11:44 1015 29.97 844 24.92 26.4 79.6 30 7.6 45.7 26.56 1.046
11:45 1015 29.97 844 24.92 26.5 79.7 27 6.1 42.9 26.59 1.047
11:46 1015 29.97 844 24.92 26.5 79.8 35 10 50 26.62 1.048
11:47 1015 29.97 844 24.92 26.6 79.9 33 9.4 48.9 26.77 1.054
11:48 1015 29.97 844 24.92 26.6 79.8 28 7.1 44.8 26.76 1.054
11:49 1015 29.97 844 24.92 26.7 80 33 9.1 48.4 26.74 1.053
11:50 1015 29.97 844 24.92 26.8 80.2 33 9.2 48.6 26.86 1.057
11:51 1015 29.97 844 24.92 26.8 80.3 29 7.4 45.3 26.95 1.061
11:52 1015 29.97 844 24.92 26.8 80.2 31 8.6 47.5 26.99 1.063
11:53 1015 29.97 844 24.92 26.9 80.5 31 8.5 47.3 27.15 1.069
11:54 1015 29.97 844 24.92 27.1 80.7 30 8.5 47.2 27.27 1.074
11:55 1015 29.97 844 24.92 27.1 80.8 27 6.8 44.2 27.23 1.072
11:56 1015 29.97 844 24.92 27.2 81 38 12 53.5 27.25 1.073
11:57 1015 29.97 844 24.92 27.3 81.1 27 6.8 44.2 27.32 1.076
11:58 1015 29.97 844 24.92 27.2 80.9 29 7.6 45.8 27.19 1.07
11:59 1015 29.97 844 24.92 27.1 80.8 28 7.4 45.3 27.09 1.067
12:00 1015 29.97 844 24.92 27 80.7 29 8 46.3 27.01 1.063
12:01 1015 29.97 844 24.92 27 80.7 27 6.9 44.4 27.12 1.068
12:02 1015 29.97 844 24.92 27.1 80.8 33 9.7 49.4 27.23 1.072
12:03 1015 29.97 844 24.92 27.2 80.9 32 9.5 49.1 27.37 1.078
12:04 1015 29.97 844 24.92 27.2 81 27 7.1 44.7 27.4 1.079
12:05 1015 29.97 844 24.92 27.2 80.9 30 8.4 47.2 27.38 1.078
12:06 1015 29.97 844 24.92 27.2 81 30 8.3 46.9 27.51 1.083
12:07 1015 29.97 844 24.92 27.4 81.2 35 10.7 51.3 27.63 1.088
12:08 1015 29.97 844 24.92 27.5 81.5 31 9.4 48.8 27.78 1.094
12:09 1015 29.97 844 24.92 27.7 81.8 27 7.3 45.1 27.86 1.097
12:10 1015 29.97 844 24.92 27.8 82 30 9.1 48.4 27.95 1.1
12:11 1015 29.97 844 24.92 27.9 82.2 29 8.5 47.4 28.07 1.105
12:12 1015 29.97 844 24.92 28 82.5 31 9.8 49.6 28.19 1.11
12:13 1015 29.97 844 24.92 28.1 82.6 30 9 48.1 28.23 1.111
12:14 1015 29.97 844 24.92 28.2 82.7 34 10.9 51.7 28.25 1.112
12:15 1015 29.97 844 24.92 28.2 82.8 33 10.7 51.2 28.35 1.116
12:16 1015 29.97 844 24.92 28.2 82.8 27 7.7 45.8 28.38 1.117
12:17 1015 29.97 844 24.92 28.3 83 25 6.7 44.1 28.43 1.119
12:18 1015 29.97 844 24.92 28.3 83 28 8.4 47 28.5 1.122
12:19 1015 29.97 844 24.92 28.4 83.1 26 7.2 45 28.51 1.122
12:20 1015 29.97 844 24.92 28.5 83.2 28 8.6 47.5 28.57 1.125
12:21 1015 29.97 844 24.92 28.4 83.2 28 8.6 47.5 28.59 1.126
12:22 1015 29.97 844 24.92 28.3 83 28 8.4 47.2 28.49 1.122
12:23 1015 29.97 844 24.92 28.4 83.1 29 8.8 47.8 28.52 1.123
12:24 1015 29.97 844 24.92 28.5 83.3 27 8.1 46.6 28.65 1.128
12:25 1015 29.97 844 24.92 28.7 83.6 32 10.6 51.1 28.84 1.135
12:26 1015 29.97 844 24.92 28.8 83.8 32 10.9 51.6 28.89 1.137
12:27 1015 29.97 844 24.92 28.7 83.6 26 7.4 45.2 28.76 1.132
12:28 1015 29.97 844 24.92 28.5 83.3 27 8 46.4 28.49 1.122
12:29 1015 29.97 844 24.92 28.2 82.8 31 9.6 49.3 28.28 1.113
12:30 1015 29.97 844 24.92 28 82.5 31 9.7 49.5 28.13 1.107
12:31 1015 29.97 844 24.92 27.8 82.1 29 8.7 47.7 27.98 1.102
12:32 1015 29.97 844 24.92 27.7 81.8 30 8.6 47.4 27.81 1.095
12:33 1015 29.97 844 24.92 27.6 81.7 33 10 50.1 27.74 1.092
12:34 1015 29.97 844 24.92 27.6 81.6 32 9.8 49.7 27.79 1.094
12:35 1015 29.97 844 24.92 27.5 81.6 31 9.1 48.4 27.71 1.091
12:36 1015 29.97 844 24.92 27.5 81.5 32 9.7 49.4 27.6 1.087
12:37 1015 29.97 844 24.92 27.4 81.3 33 10.1 50.1 27.51 1.083
12:38 1015 29.97 844 24.92 27.3 81.2 29 8 46.5 27.4 1.079
12:39 1015 29.97 844 24.92 27.2 81 32 9.4 48.8 27.37 1.078
12:40 1015 29.97 844 24.92 27.2 80.9 31 9 48.1 27.35 1.077
12:41 1015 29.97 844 24.92 27.2 80.9 35 10.4 50.8 27.37 1.078
12:42 1015 29.97 844 24.92 27.2 80.9 36 11 51.7 27.42 1.08
12:43 1015 29.97 844 24.92 27.1 80.8 36 11.2 52.1 27.39 1.078
12:44 1015 29.97 844 24.92 27.1 80.7 35 10.4 50.8 27.3 1.075
12:45 1015 29.97 844 24.92 27.1 80.7 34 10 50.1 27.35 1.077
12:46 1015 29.97 844 24.92 27.1 80.7 31 8.9 48 27.28 1.074
12:47 1015 29.97 844 24.92 27.1 80.7 32 9.1 48.3 27.29 1.074
12:48 1015 29.97 844 24.92 27 80.6 28 7.2 45 27.21 1.071
12:49 1015 29.97 844 24.92 27 80.6 32 9.4 48.9 27.22 1.072
12:50 1015 29.97 844 24.92 27 80.6 36 11 51.8 27.23 1.072
12:51 1015 29.97 844 24.92 26.9 80.5 39 12 53.6 27.17 1.07
12:52 1015 29.97 844 24.92 26.7 80.1 40 12.3 54.1 27.06 1.065
12:53 1015 29.97 844 24.92 26.6 79.8 34 9.6 49.2 26.91 1.059
12:54 1015 29.97 844 24.92 26.6 79.8 33 9.4 49 26.88 1.058
12:55 1015 29.97 844 24.92 26.6 79.9 38 11.5 52.7 26.92 1.06
12:56 1015 29.97 844 24.92 26.6 79.9 33 9.1 48.4 26.98 1.062
12:57 1015 29.97 844 24.92 26.6 79.9 37 11 51.7 26.97 1.062
12:58 1015 29.97 844 24.92 26.6 79.8 41 12.3 54.2 26.99 1.063
12:59 1015 29.97 844 24.92 26.5 79.6 48 14.8 58.6 26.9 1.059
13:00 1015 29.97 844 24.92 26.3 79.3 35 9.6 49.3 26.67 1.05
13:01 1015 29.97 844 24.92 26.3 79.4 36 10.2 50.4 26.68 1.05
13:02 1015 29.97 844 24.92 26.4 79.6 39 11.5 52.6 26.82 1.056
13:03 1015 29.97 844 24.92 26.5 79.6 37 11 51.9 26.87 1.058
13:04 1015 29.97 844 24.92 26.4 79.6 40 12.1 53.8 26.81 1.056
13:05 1015 29.97 844 24.92 26.4 79.5 40 11.8 53.2 26.82 1.056
13:06 1015 29.97 844 24.92 26.4 79.5 27 6.4 43.5 26.73 1.052
13:07 1015 29.97 844 24.92 26.5 79.7 35 10.1 50.2 26.86 1.057
13:08 1015 29.97 844 24.92 26.7 80.1 28 6.9 44.4 27.11 1.067
13:09 1015 29.97 844 24.92 26.8 80.3 41 12.8 55 27.22 1.072
13:10 1015 29.97 844 24.92 26.9 80.5 43 13.5 56.4 27.37 1.078
13:11 1015 29.97 844 24.92 26.8 80.3 35 10.4 50.7 27.28 1.074
13:12 1015 29.97 844 24.92 26.7 80.1 34 9.9 49.8 27.08 1.066
13:13 1015 29.97 844 24.92 26.7 80.1 29 7.3 45.1 27.02 1.064
13:14 1015 29.97 844 24.92 26.7 80.1 40 12.1 53.8 27.02 1.064
13:15 1015 29.97 844 24.92 26.7 80 37 11.1 51.9 27.06 1.065
13:16 1015 29.97 844 24.92 26.5 79.7 35 10.2 50.4 26.93 1.06
13:17 1015 29.97 844 24.92 26.5 79.6 30 7.7 45.8 26.87 1.058
13:18 1015 29.97 844 24.92 26.5 79.7 28 6.6 43.8 26.81 1.056
13:19 1015 29.97 844 24.92 26.7 80 33 9.2 48.5 26.99 1.063
13:20 1015 29.97 844 24.92 26.8 80.3 33 9.4 48.9 27.2 1.071
13:21 1015 29.97 844 24.92 27 80.5 33 9.7 49.4 27.28 1.074
13:22 1015 29.97 844 24.92 27 80.5 37 11.3 52.3 27.38 1.078
13:23 1015 29.97 844 24.92 27 80.5 32 9.1 48.4 27.33 1.076
13:24 1015 29.97 844 24.92 26.9 80.4 36 11 51.8 27.34 1.076
13:25 1015 29.97 844 24.92 26.9 80.3 21 3.1 37.6 27.25 1.073
13:26 1015 29.97 844 24.92 27 80.7 38 11.7 53.1 27.35 1.077
13:27 1015 29.97 844 24.92 26.8 80.2 32 8.9 48.1 27.28 1.074
13:28 1015 29.97 844 24.92 26.7 80 30 8 46.3 27.1 1.067
13:29 1015 29.97 844 24.92 26.6 79.9 27 6.1 43 27.01 1.063
13:30 1015 29.97 844 24.92 26.7 80.1 27 6.7 44 27.08 1.066
13:31 1015 29.97 844 24.92 26.8 80.2 22 3.4 38.2 27.17 1.07
13:32 1015 29.97 844 24.92 26.8 80.3 29 7.5 45.5 27.23 1.072
13:33 1015 29.97 844 24.92 26.5 79.6 29 7.4 45.4 26.97 1.062
13:34 1015 29.97 844 24.92 26.3 79.4 24 4.7 40.4 26.75 1.053
13:35 1015 29.97 844 24.92 26.5 79.7 23 3.7 38.6 26.88 1.058
13:36 1015 29.97 844 24.92 26.5 79.8 25 5 41 26.97 1.062
13:37 1015 29.97 844 24.92 26.5 79.6 26 5.8 42.5 26.92 1.06
13:38 1015 29.97 844 24.92 26.5 79.7 24 4.5 40.1 26.89 1.059
13:39 1015 29.97 844 24.92 26.6 79.8 30 7.8 46 27.01 1.063
13:40 1015 29.97 844 24.92 26.5 79.7 28 6.8 44.3 26.93 1.06
13:41 1015 29.97 844 24.92 26.5 79.6 24 4.4 40 26.85 1.057
13:42 1015 29.97 844 24.92 26.6 79.9 21 2.7 36.8 26.94 1.061
13:43 1015 29.97 844 24.92 26.7 80 22 3.4 38.1 27.05 1.065
13:44 1015 29.97 844 24.92 26.7 80 17 -0 31.9 27.06 1.065
13:45 1015 29.97 844 24.92 26.9 80.4 20 2.1 35.8 27.25 1.073
13:46 1015 29.97 844 24.92 26.9 80.3 23 4.1 39.4 27.21 1.071
13:47 1015 29.97 844 24.92 26.7 80.1 23 4.4 40 27.09 1.067
13:48 1015 29.97 844 24.92 26.8 80.3 22 3.8 38.8 27.24 1.072
13:49 1015 29.97 844 24.92 27.2 81 24 5.1 41.2 27.59 1.086
13:50 1015 29.97 844 24.92 27.4 81.4 21 3.7 38.7 27.87 1.097
13:51 1015 29.97 844 24.92 27.6 81.7 24 5.6 42.1 28 1.102
13:52 1015 29.97 844 24.92 27.8 82 22 4.2 39.5 28.12 1.107
13:53 1015 29.97 844 24.92 28.1 82.5 19 2.4 36.4 28.45 1.12
13:54 1015 29.97 844 24.92 28.6 83.6 20 3.8 38.9 29.01 1.142
13:55 1015 29.97 844 24.92 29.1 84.4 20 4.4 39.9 29.52 1.162
13:56 1015 29.97 844 24.92 29.3 84.7 15 -0.1 31.9 29.66 1.168
13:57 1015 29.97 844 24.92 29.2 84.5 21 4.7 40.5 29.59 1.165
13:58 1015 29.97 844 24.92 29.1 84.3 26 7.7 45.8 29.5 1.161
13:59 1015 29.97 844 24.92 29.1 84.4 14 -1.1 30.1 29.54 1.163
14:00 1015 29.97 844 24.92 29.3 84.7 18 3.1 37.7 29.68 1.169
14:01 1015 29.97 844 24.92 29.3 84.7 18 3.2 37.7 29.69 1.169
14:02 1015 29.97 844 24.92 29 84.3 16 1.1 34 29.49 1.161
14:03 1015 29.97 844 24.92 28.9 84 22 5 41.1 29.28 1.153
14:04 1015 29.97 844 24.92 28.6 83.4 22 5.3 41.5 28.99 1.141
14:05 1015 29.97 844 24.92 28.2 82.8 21 4.4 39.9 28.66 1.128
14:06 1015 29.97 844 24.92 28.2 82.7 19 3 37.5 28.52 1.123
14:07 1015 29.97 844 24.92 28.2 82.7 20 3.6 38.5 28.57 1.125
14:08 1015 29.97 844 24.92 28.1 82.6 19 2.9 37.3 28.48 1.121
14:09 1015 29.97 844 24.92 28 82.5 16 0.1 32.2 28.42 1.119
14:10 1015 29.97 844 24.92 28.1 82.6 19 2.7 36.8 28.49 1.122
14:11 1015 29.97 844 24.92 28.1 82.5 19 2.7 36.8 28.48 1.121
14:12 1015 29.97 844 24.92 28.2 82.7 20 3.6 38.5 28.55 1.124
14:13 1015 29.97 844 24.92 28.4 83.1 18 2.1 35.8 28.77 1.133
14:14 1015 29.97 844 24.92 28.7 83.6 16 0.5 33 29.05 1.144
14:15 1015 29.97 844 24.92 28.8 83.8 20 3.9 39 29.15 1.148
14:16 1015 29.97 844 24.92 28.7 83.6 21 4.5 40.1 29.05 1.144
14:17 1015 29.97 844 24.92 28.5 83.3 17 1.4 34.6 28.9 1.138
14:18 1015 29.97 844 24.92 28.4 83.1 18 2.2 36 28.78 1.133
14:19 1015 29.97 844 24.92 28.3 82.9 17 1.3 34.4 28.65 1.128
14:20 1015 29.97 844 24.92 28.1 82.6 18 2.1 35.7 28.47 1.121
14:21 1015 29.97 844 24.92 28 82.4 17 0.9 33.7 28.4 1.118
14:22 1015 29.97 844 24.92 28 82.4 17 1.3 34.3 28.36 1.117
14:23 1015 29.97 844 24.92 27.9 82.1 17 0.5 32.9 28.25 1.112
14:24 1015 29.97 844 24.92 27.7 81.9 18 1.3 34.3 28.13 1.107
14:25 1015 29.97 844 24.92 27.7 81.8 18 1.2 34.2 28.07 1.105
14:26 1015 29.97 844 24.92 27.5 81.5 19 2.4 36.3 27.91 1.099
14:27 1015 29.97 844 24.92 27.4 81.2 21 3.2 37.7 27.78 1.094
14:28 1015 29.97 844 24.92 27.4 81.2 17 0.2 32.3 27.73 1.092
14:29 1015 29.97 844 24.92 27.4 81.4 18 1.1 34 27.77 1.093
14:30 1015 29.97 844 24.92 27.5 81.4 18 1.2 34.1 27.81 1.095
14:31 1015 29.97 844 24.92 27.4 81.4 18 1.4 34.5 27.81 1.095
14:32 1015 29.97 844 24.92 27.4 81.3 20 2.6 36.7 27.8 1.094
14:33 1015 29.97 844 24.92 27.3 81.1 20 2.9 37.3 27.65 1.089
14:34 1015 29.97 844 24.92 27 80.7 21 2.9 37.3 27.45 1.081
14:35 1015 29.97 844 24.92 26.8 80.3 20 2.4 36.2 27.26 1.073
14:36 1015 29.97 844 24.92 26.9 80.4 19 1.5 34.8 27.26 1.073
14:37 1015 29.97 844 24.92 26.9 80.4 18 1 33.8 27.27 1.074
14:38 1015 29.97 844 24.92 26.9 80.3 19 1.2 34.2 27.27 1.074
14:39 1015 29.97 844 24.92 26.9 80.4 18 1.1 34 27.25 1.073
14:40 1015 29.97 844 24.92 26.9 80.5 17 0.4 32.7 27.33 1.076
14:41 1015 29.97 844 24.92 27 80.7 18 0.9 33.7 27.42 1.08
14:42 1015 29.97 844 24.92 27.2 80.9 19 1.6 34.9 27.5 1.083
14:43 1015 29.97 844 24.92 27.1 80.8 19 1.5 34.7 27.51 1.083
14:44 1015 29.97 844 24.92 27.2 80.9 20 2.3 36.1 27.55 1.085
14:45 1015 29.97 844 24.92 27.1 80.7 20 2.6 36.6 27.45 1.081
14:46 1015 29.97 844 24.92 27 80.5 20 2.6 36.6 27.35 1.077
14:47 1015 29.97 844 24.92 26.9 80.4 20 2.6 36.7 27.27 1.074
14:48 1015 29.97 844 24.92 26.9 80.3 19 1.6 34.8 27.25 1.073
14:49 1015 29.97 844 24.92 27 80.5 21 2.7 36.9 27.34 1.076
14:50 1015 29.97 844 24.92 27 80.7 20 2.8 37 27.45 1.081
14:51 1015 29.97 844 24.92 27.1 80.7 20 2.2 35.9 27.47 1.081
14:52 1015 29.97 844 24.92 27.2 81 23 4.7 40.4 27.58 1.086
14:53 1015 29.97 844 24.92 27.7 81.8 19 2.4 36.4 28.03 1.104
14:54 1015 29.97 844 24.92 28.2 82.7 22 4.8 40.6 28.55 1.124
14:55 1015 29.97 844 24.92 28.3 82.9 21 4.5 40.1 28.73 1.131
14:56 1015 29.97 844 24.92 28.2 82.8 21 4.3 39.7 28.6 1.126
14:57 1015 29.97 844 24.92 28.1 82.7 16 0.6 33.1 28.59 1.126
14:58 1015 29.97 844 24.92 28.2 82.8 17 1.3 34.3 28.61 1.126
14:59 1015 29.97 844 24.92 28.3 82.9 20 3.2 37.8 28.68 1.129
15:00 1015 29.97 844 24.92 28.3 83 21 4.3 39.7 28.78 1.133
15:01 1015 29.97 844 24.92 28.5 83.3 19 3.2 37.8 28.93 1.139
15:02 1015 29.97 844 24.92 28.4 83.2 18 2.3 36.1 28.83 1.135
15:03 1015 29.97 844 24.92 28.4 83.1 18 1.7 35.1 28.83 1.135
15:04 1015 29.97 844 24.92 28.6 83.5 19 3 37.4 29.04 1.143
15:05 1015 29.97 844 24.92 28.8 83.9 17 2 35.5 29.21 1.15
15:06 1015 29.97 844 24.92 28.8 83.8 19 3.2 37.7 29.19 1.149
15:07 1015 29.97 844 24.92 28.7 83.7 20 4.1 39.3 29.15 1.148
15:08 1015 29.97 844 24.92 28.8 83.9 18 2.8 37.1 29.28 1.153
15:09 1015 29.97 844 24.92 29 84.2 13 -1.8 28.8 29.49 1.161
15:10 1015 29.97 844 24.92 29.3 84.7 16 1.1 34 29.67 1.168
15:11 1015 29.97 844 24.92 29.4 84.9 16 1.2 34.2 29.82 1.174
15:12 1015 29.97 844 24.92 29.2 84.6 16 1 33.8 29.63 1.167
15:13 1015 29.97 844 24.92 28.9 84 18 2.3 36.1 29.29 1.153
15:14 1015 29.97 844 24.92 28.6 83.4 17 1.4 34.4 28.97 1.141
15:15 1015 29.97 844 24.92 28.3 82.9 18 2.2 35.9 28.71 1.13
15:16 1015 29.97 844 24.92 28.1 82.7 16 0.3 32.6 28.52 1.123
15:17 1015 29.97 844 24.92 28.1 82.5 18 1.9 35.5 28.41 1.119
15:18 1015 29.97 844 24.92 27.9 82.1 20 3.4 38.1 28.25 1.112
15:19 1015 29.97 844 24.92 27.6 81.6 22 4.2 39.6 27.97 1.101
15:20 1015 29.97 844 24.92 27.3 81.1 22 3.8 38.9 27.74 1.092
15:21 1015 29.97 844 24.92 27.2 81 22 3.7 38.7 27.6 1.087
15:22 1015 29.97 844 24.92 27.2 81 22 3.7 38.7 27.61 1.087
15:23 1015 29.97 844 24.92 27.1 80.8 24 5.1 41.2 27.54 1.084
15:24 1015 29.97 844 24.92 27 80.6 26 6 42.7 27.42 1.08
15:25 1015 29.97 844 24.92 27.2 81 25 5.7 42.3 27.68 1.09
15:26 1015 29.97 844 24.92 27.8 82 23 5 41 28.14 1.108
15:27 1015 29.97 844 24.92 28.4 83.2 22 5 41 28.8 1.134
15:28 1015 29.97 844 24.92 29 84.2 18 2.6 36.6 29.38 1.157
15:29 1015 29.97 844 24.92 29.3 84.7 19 3.6 38.5 29.62 1.166
15:30 1015 29.97 844 24.92 29.5 85.1 21 5.1 41.2 29.92 1.178
15:31 1015 29.97 844 24.92 29.8 85.6 17 2.4 36.4 30.19 1.189
15:32 1015 29.97 844 24.92 29.9 85.9 18 3.7 38.6 30.31 1.193
15:33 1015 29.97 844 24.92 30 86 22 6 42.8 30.46 1.199
15:34 1015 29.97 844 24.92 30 85.9 22 6.1 42.9 30.43 1.198
15:35 1015 29.97 844 24.92 29.6 85.3 18 3.4 38 30.06 1.183
15:36 1015 29.97 844 24.92 29.2 84.5 17 1.9 35.4 29.59 1.165
15:37 1015 29.97 844 24.92 28.9 84 22 5.3 41.5 29.29 1.153
15:38 1015 29.97 844 24.92 28.8 83.9 20 3.9 39.1 29.26 1.152
15:39 1015 29.97 844 24.92 29 84.2 18 2.2 36 29.44 1.159
15:40 1015 29.97 844 24.92 29.4 84.9 18 2.6 36.6 29.77 1.172
15:41 1015 29.97 844 24.92 29.7 85.4 17 2.2 36 30.03 1.182
15:42 1015 29.97 844 24.92 29.9 85.8 17 2.7 36.9 30.27 1.192
15:43 1015 29.97 844 24.92 30 86 15 0.7 33.2 30.45 1.199
15:44 1015 29.97 844 24.92 30.1 86.1 14 0.4 32.8 30.48 1.2
15:45 1015 29.97 844 24.92 30.1 86.1 17 2.7 36.9 30.45 1.199
15:46 1015 29.97 844 24.92 30.1 86.1 17 2.7 36.9 30.49 1.2
15:47 1015 29.97 844 24.92 30.1 86.2 17 2.5 36.5 30.54 1.202
15:48 1015 29.97 844 24.92 30.1 86.2 18 3.4 38.1 30.55 1.203
15:49 1015 29.97 844 24.92 30.1 86.3 17 2.4 36.3 30.49 1.2
15:50 1015 29.97 844 24.92 30.1 86.2 18 3.3 38 30.49 1.2
15:51 1015 29.97 844 24.92 30 85.9 14 0.3 32.5 30.37 1.196
15:52 1015 29.97 844 24.92 29.8 85.6 17 2.7 36.8 30.17 1.188
15:53 1015 29.97 844 24.92 29.5 85.2 16 1.8 35.3 29.93 1.178
15:54 1015 29.97 844 24.92 29.3 84.8 17 1.9 35.5 29.69 1.169
15:55 1015 29.97 844 24.92 29.1 84.3 19 3.4 38.1 29.43 1.159
15:56 1015 29.97 844 24.92 28.8 83.8 19 3 37.5 29.23 1.151
15:57 1015 29.97 844 24.92 28.7 83.6 20 3.5 38.2 29.04 1.143
15:58 1015 29.97 844 24.92 28.6 83.5 18 2.5 36.5 28.97 1.141
15:59 1015 29.97 844 24.92 28.7 83.6 21 4.7 40.4 29.05 1.144
16:00 1015 29.97 844 24.92 28.7 83.7 19 3 37.5 29.12 1.146
16:01 1015 29.97 844 24.92 28.7 83.7 20 3.9 39.1 29.11 1.146
16:02 1015 29.97 844 24.92 28.7 83.7 21 4.3 39.8 29.08 1.145
16:03 1015 29.97 844 24.92 28.6 83.5 21 4.7 40.5 29.04 1.143
16:04 1015 29.97 844 24.92 28.6 83.5 21 4.6 40.2 29.06 1.144
16:05 1015 29.97 844 24.92 28.7 83.6 19 3.4 38.1 29.04 1.143
16:06 1015 29.97 844 24.92 28.6 83.5 21 4.2 39.5 29.02 1.143
16:07 1015 29.97 844 24.92 28.6 83.4 20 3.7 38.7 28.92 1.139
16:08 1015 29.97 844 24.92 28.5 83.2 23 5.4 41.7 28.82 1.135
16:09 1015 29.97 844 24.92 28.3 83 22 4.9 40.8 28.7 1.13
16:10 1015 29.97 844 24.92 28.3 82.9 23 5.4 41.6 28.66 1.128
16:11 1015 29.97 844 24.92 28.4 83.1 23 5.8 42.4 28.76 1.132
16:12 1015 29.97 844 24.92 28.6 83.5 23 5.8 42.5 28.94 1.139
16:13 1015 29.97 844 24.92 28.8 83.9 20 3.9 39 29.27 1.152
16:14 1015 29.97 844 24.92 29.2 84.5 19 3.7 38.7 29.53 1.163
16:15 1015 29.97 844 24.92 29.4 85 23 6.4 43.5 29.8 1.173
16:16 1015 29.97 844 24.92 29.7 85.4 23 6.4 43.6 30.01 1.181
16:17 1015 29.97 844 24.92 29.7 85.4 19 4 39.2 30.07 1.184
16:18 1015 29.97 844 24.92 29.6 85.2 26 8.2 46.7 30.01 1.181
16:19 1015 29.97 844 24.92 29.6 85.3 21 5.3 41.5 30.06 1.183
16:20 1015 29.97 844 24.92 29.7 85.5 23 6.7 44.1 30.09 1.185
16:21 1015 29.97 844 24.92 29.8 85.7 23 6.9 44.5 30.24 1.191
16:22 1015 29.97 844 24.92 29.9 85.8 24 7.5 45.5 30.32 1.194
16:23 1015 29.97 844 24.92 30 85.9 22 6.2 43.1 30.39 1.196
16:24 1015 29.97 844 24.92 30 85.9 22 6.6 43.8 30.4 1.197
16:25 1015 29.97 844 24.92 29.9 85.9 23 6.6 43.9 30.34 1.194
16:26 1015 29.97 844 24.92 29.8 85.7 20 5.1 41.2 30.27 1.192
16:27 1015 29.97 844 24.92 29.6 85.3 20 4.9 40.9 30.06 1.183
16:28 1015 29.97 844 24.92 29.7 85.4 21 5.5 41.9 30.03 1.182
16:29 1015 29.97 844 24.92 29.7 85.4 18 3.5 38.3 30.05 1.183
16:30 1015 29.97 844 24.92 29.7 85.5 18 3.2 37.7 30.11 1.185
16:31 1015 29.97 844 24.92 29.6 85.3 20 4.6 40.2 30.01 1.181
16:32 1015 29.97 844 24.92 29.6 85.3 18 2.9 37.2 30.09 1.185
16:33 1015 29.97 844 24.92 29.6 85.4 18 3.1 37.7 30.06 1.183
16:34 1015 29.97 844 24.92 29.7 85.4 18 3.5 38.3 30.13 1.186
16:35 1015 29.97 844 24.92 29.7 85.4 22 6 42.8 30.11 1.185
16:36 1015 29.97 844 24.92 29.6 85.2 20 4.6 40.3 29.99 1.181
16:37 1015 29.97 844 24.92 29.5 85 22 6.1 43 29.92 1.178
16:38 1015 29.97 844 24.92 29.5 85 23 6.7 44 29.9 1.177
16:39 1015 29.97 844 24.92 29.5 85 20 4.3 39.8 29.93 1.178
16:40 1015 29.97 844 24.92 29.5 85.1 23 6.4 43.6 29.92 1.178
16:41 1015 29.97 844 24.92 29.5 85.1 23 6.8 44.2 29.91 1.178
16:42 1015 29.97 844 24.92 29.4 85 18 2.8 37.1 29.86 1.176
16:43 1015 29.97 844 24.92 29.5 85.1 16 1.7 35.1 29.91 1.178
16:44 1015 29.97 844 24.92 29.6 85.3 15 0.5 33 30.01 1.181
16:45 1015 29.97 844 24.92 29.6 85.2 20 4.3 39.7 30.05 1.183
16:46 1015 29.97 844 24.92 29.5 85.1 18 3.1 37.7 30 1.181
16:47 1015 29.97 844 24.92 29.5 85.1 20 4.6 40.3 29.99 1.181
16:48 1015 29.97 844 24.92 29.4 85 21 4.8 40.7 29.88 1.176
16:49 1015 29.97 844 24.92 29.5 85 17 1.8 35.3 29.87 1.176
16:50 1015 29.97 844 24.92 29.6 85.2 17 2.4 36.2 29.98 1.18
16:51 1015 29.97 844 24.92 29.6 85.4 20 4.6 40.2 30.05 1.183
16:52 1015 29.97 844 24.92 29.6 85.3 19 3.6 38.5 29.98 1.18
16:53 1015 29.97 844 24.92 29.4 84.8 17 1.8 35.3 29.74 1.171
16:54 1015 29.97 844 24.92 28.8 83.8 19 3.3 37.9 29.16 1.148
16:55 1015 29.97 844 24.92 28.2 82.7 20 3.3 38 28.59 1.126
16:56 1015 29.97 844 24.92 27.6 81.7 20 3.3 37.9 28.07 1.105
16:57 1015 29.97 844 24.92 27.5 81.5 21 3.3 38 27.88 1.098
16:58 1015 29.97 844 24.92 27.7 81.8 23 5 40.9 28.06 1.105
16:59 1015 29.97 844 24.92 27.9 82.1 23 5.4 41.7 28.29 1.114
17:00 1015 29.97 844 24.92 28.1 82.6 22 4.9 40.8 28.5 1.122
17:01 1015 29.97 844 24.92 28.5 83.4 14 -1 30.3 28.93 1.139
17:02 1014 29.94 844 24.92 29 84.2 16 1.1 34 29.37 1.156
17:03 1014 29.94 844 24.92 29.3 84.7 18 2.6 36.7 29.66 1.168
17:04 1015 29.97 844 24.92 29.3 84.7 16 1.3 34.4 29.72 1.17
17:05 1015 29.97 844 24.92 29.2 84.6 20 4.1 39.4 29.68 1.169
17:06 1014 29.94 844 24.92 29.2 84.5 14 -0.4 31.3 29.63 1.167
17:07 1015 29.97 844 24.92 29.3 84.7 19 3.7 38.7 29.69 1.169
17:08 1015 29.97 844 24.92 29.2 84.5 19 3.7 38.6 29.69 1.169
17:09 1014 29.94 844 24.92 29.1 84.3 21 4.7 40.5 29.55 1.163
17:10 1014 29.94 844 24.92 29.1 84.3 22 5.5 41.9 29.48 1.161
17:11 1015 29.97 844 24.92 29 84.2 19 3.4 38.1 29.47 1.16
17:12 1014 29.94 844 24.92 28.9 84.1 17 1.3 34.4 29.37 1.156
17:13 1015 29.97 844 24.92 28.9 84 17 1.9 35.5 29.32 1.154
17:14 1014 29.94 844 24.92 28.9 84 17 1.6 34.9 29.29 1.153
17:15 1014 29.94 844 24.92 28.9 83.9 19 3.5 38.3 29.22 1.15
17:16 1015 29.97 844 24.92 28.8 83.9 15 -0.4 31.3 29.23 1.151
17:17 1015 29.97 844 24.92 29 84.1 17 1.6 34.9 29.34 1.155
17:18 1015 29.97 844 24.92 29 84.2 16 1.3 34.3 29.43 1.159
17:19 1015 29.97 844 24.92 28.9 84 20 4 39.1 29.3 1.154
17:20 1015 29.97 844 24.92 28.7 83.7 16 1 33.7 29.18 1.149
17:21 1015 29.97 844 24.92 28.6 83.5 21 4.4 39.9 29.07 1.144
17:22 1015 29.97 844 24.92 28.3 83 21 4.5 40 28.8 1.134
17:23 1015 29.97 844 24.92 28 82.4 21 4.1 39.4 28.43 1.119
17:24 1015 29.97 844 24.92 28 82.3 20 3.2 37.7 28.35 1.116
17:25 1015 29.97 844 24.92 28.1 82.6 19 2.4 36.3 28.47 1.121
17:26 1015 29.97 844 24.92 28.2 82.8 18 2 35.6 28.62 1.127
17:27 1015 29.97 844 24.92 28.2 82.7 19 2.6 36.7 28.59 1.126
17:28 1015 29.97 844 24.92 28.1 82.5 22 4.6 40.2 28.48 1.121
17:29 1015 29.97 844 24.92 28 82.4 18 1.5 34.6 28.37 1.117
17:30 1015 29.97 844 24.92 28 82.4 18 2.2 35.9 28.43 1.119
17:31 1015 29.97 844 24.92 27.8 82.1 21 3.5 38.3 28.31 1.115
17:32 1015 29.97 844 24.92 27.7 81.8 22 4.3 39.8 28.11 1.107
17:33 1015 29.97 844 24.92 27.5 81.4 23 4.5 40.2 27.9 1.098
17:34 1015 29.97 844 24.92 27.3 81.2 19 1.7 35 27.76 1.093
17:35 1015 29.97 844 24.92 27.4 81.4 19 2.1 35.8 27.81 1.095
17:36 1015 29.97 844 24.92 27.5 81.5 20 2.6 36.7 27.9 1.098
17:37 1015 29.97 844 24.92 27.6 81.6 21 3.7 38.7 28.02 1.103
17:38 1015 29.97 844 24.92 27.5 81.4 21 3.2 37.8 27.86 1.097
17:39 1015 29.97 844 24.92 27.4 81.4 19 2.3 36.1 27.83 1.096
17:40 1015 29.97 844 24.92 27.4 81.3 22 3.9 39 27.81 1.095
17:41 1015 29.97 844 24.92 27.2 81 20 2.9 37.2 27.63 1.088
17:42 1015 29.97 844 24.92 27.1 80.7 18 0.9 33.7 27.47 1.081
17:43 1015 29.97 844 24.92 27 80.6 21 3 37.4 27.38 1.078
17:44 1015 29.97 844 24.92 27.1 80.7 19 1.8 35.3 27.47 1.081
17:45 1015 29.97 844 24.92 27.3 81.1 17 0.2 32.4 27.66 1.089
17:46 1015 29.97 844 24.92 27.4 81.4 20 2.5 36.5 27.89 1.098
17:47 1015 29.97 844 24.92 27.5 81.5 20 3 37.5 27.99 1.102
17:48 1015 29.97 844 24.92 27.7 81.8 19 1.9 35.4 28.11 1.107
17:49 1015 29.97 844 24.92 27.8 82 20 2.8 37.1 28.23 1.111
17:50 1015 29.97 844 24.92 27.8 82.1 20 2.9 37.3 28.23 1.111
17:51 1015 29.97 844 24.92 27.7 81.9 17 0.4 32.7 28.18 1.109
17:52 1015 29.97 844 24.92 27.8 82 16 0.2 32.3 28.21 1.111
17:53 1015 29.97 844 24.92 27.9 82.2 17 1.1 34 28.23 1.111
17:54 1015 29.97 844 24.92 27.9 82.2 16 -0.1 31.8 28.27 1.113
17:55 1015 29.97 844 24.92 28 82.4 16 0.2 32.4 28.37 1.117
17:56 1015 29.97 844 24.92 28 82.5 19 2.7 36.8 28.42 1.119
17:57 1015 29.97 844 24.92 27.9 82.3 20 2.9 37.2 28.32 1.115
17:58 1015 29.97 844 24.92 27.9 82.3 16 0.4 32.8 28.3 1.114
17:59 1015 29.97 844 24.92 27.9 82.3 16 0.5 32.9 28.27 1.113
18:00 1015 29.97 844 24.92 27.9 82.1 16 -0.2 31.7 28.24 1.112
18:01 1015 29.97 844 24.92 27.8 82 16 -0.2 31.7 28.14 1.108
18:02 1015 29.97 844 24.92 27.7 81.9 17 0.5 33 28.07 1.105
18:03 1015 29.97 844 24.92 27.5 81.5 17 0.3 32.5 27.91 1.099
18:04 1015 29.97 844 24.92 27.3 81.2 16 -0.2 31.7 27.68 1.09
18:05 1015 29.97 844 24.92 27.3 81.1 19 1.8 35.3 27.65 1.089
18:06 1015 29.97 844 24.92 27 80.6 18 1.2 34.1 27.34 1.076
18:07 1015 29.97 844 24.92 26.8 80.2 18 0.8 33.4 27.16 1.069
18:08 1015 29.97 844 24.92 26.7 80.1 18 0.9 33.6 27.07 1.066
18:09 1015 29.97 844 24.92 26.7 80.1 17 0.1 32.1 27.12 1.068
18:10 1015 29.97 844 24.92 26.8 80.2 18 0.5 32.9 27.14 1.069
18:11 1015 29.97 844 24.92 26.8 80.2 18 0.5 33 27.1 1.067
18:12 1015 29.97 844 24.92 26.8 80.2 17 -0.1 31.8 27.15 1.069
18:13 1015 29.97 844 24.92 26.9 80.4 17 0.3 32.5 27.23 1.072
18:14 1015 29.97 844 24.92 26.9 80.3 19 1.3 34.3 27.22 1.072
18:15 1015 29.97 844 24.92 26.6 80 17 0.1 32.1 27.02 1.064
18:16 1015 29.97 844 24.92 26.5 79.7 19 1.6 34.8 26.88 1.058
18:17 1015 29.97 844 24.92 26.4 79.4 20 2 35.6 26.75 1.053
18:18 1015 29.97 844 24.92 26.1 78.9 19 0.9 33.7 26.5 1.043
18:19 1015 29.97 844 24.92 25.9 78.7 20 1.6 34.8 26.3 1.035
18:20 1015 29.97 844 24.92 26 78.8 21 2.2 35.9 26.3 1.035
18:21 1015 29.97 844 24.92 26.1 78.9 18 -0 32 26.43 1.041
18:22 1015 29.97 844 24.92 26.4 79.5 20 1.9 35.5 26.73 1.052
18:23 1015 29.97 844 24.92 26.4 79.5 22 2.9 37.3 26.78 1.054
18:24 1015 29.97 844 24.92 26.4 79.4 18 0.7 33.2 26.76 1.054
18:25 1015 29.97 844 24.92 26.5 79.8 17 0 32.1 26.88 1.058
18:26 1015 29.97 844 24.92 26.5 79.6 20 1.9 35.4 26.82 1.056
18:27 1015 29.97 844 24.92 26.1 79 20 1.7 35.1 26.54 1.045
18:28 1015 29.97 844 24.92 25.9 78.5 21 1.9 35.4 26.28 1.035
18:29 1015 29.97 844 24.92 25.8 78.4 21 2.3 36.2 26.11 1.028
18:30 1015 29.97 844 24.92 25.6 78 22 2.8 37.1 25.9 1.02
18:31 1015 29.97 844 24.92 25.4 77.6 22 2.5 36.4 25.71 1.012
18:32 1015 29.97 844 24.92 25.2 77.3 23 3.1 37.6 25.58 1.007
18:33 1015 29.97 844 24.92 25.1 77.2 24 3.3 37.9 25.47 1.003
18:34 1015 29.97 844 24.92 25 77 23 2.8 37.1 25.35 0.998
18:35 1015 29.97 845 24.95 24.9 76.7 25 3.6 38.5 25.27 0.995
18:36 1015 29.97 844 24.92 24.8 76.7 24 3.1 37.7 25.2 0.992
18:37 1015 29.97 845 24.95 24.8 76.7 24 3.2 37.8 25.2 0.992
18:38 1015 29.97 845 24.95 24.8 76.6 26 4.1 39.4 25.11 0.989
18:39 1015 29.97 845 24.95 24.6 76.3 25 3.2 37.8 24.96 0.983
18:40 1015 29.97 845 24.95 24.5 76.2 26 3.8 38.8 24.93 0.981
18:41 1015 29.97 845 24.95 24.4 75.9 26 3.7 38.6 24.8 0.976
18:42 1015 29.97 845 24.95 24.2 75.6 27 4.3 39.7 24.66 0.971
18:43 1015 29.97 845 24.95 24.1 75.3 27 4.2 39.6 24.51 0.965
18:44 1015 29.97 845 24.95 24 75.2 27 4.3 39.7 24.32 0.957
18:45 1015 29.97 845 24.95 23.9 75 27 4.1 39.4 24.23 0.954
18:46 1015 29.97 845 24.95 23.8 74.8 29 4.8 40.7 24.14 0.95
18:47 1015 29.97 845 24.95 23.6 74.5 27 3.8 38.8 23.98 0.944
18:48 1015 29.97 845 24.95 23.6 74.5 28 4.4 39.9 23.95 0.943
18:49 1015 29.97 845 24.95 23.6 74.5 30 5.1 41.1 23.91 0.941
18:50 1015 29.97 845 24.95 23.5 74.3 28 4 39.2 23.85 0.939
18:51 1015 29.97 845 24.95 23.5 74.2 27 3.6 38.5 23.8 0.937
18:52 1015 29.97 845 24.95 23.4 74.2 28 4.3 39.7 23.77 0.936
18:53 1016 30 845 24.95 23.4 74.1 30 4.9 40.7 23.76 0.935
18:54 1016 30 845 24.95 23.3 73.9 31 5.3 41.5 23.64 0.931
18:55 1016 30 845 24.95 23.3 73.9 25 2.4 36.3 23.56 0.928
18:56 1016 30 845 24.95 23.7 74.6 23 1.4 34.4 23.96 0.943
18:57 1016 30 845 24.95 24 75.3 23 1.9 35.5 24.34 0.958
18:58 1016 30 845 24.95 24.3 75.7 21 0.8 33.4 24.61 0.969
18:59 1016 30 845 24.95 24.8 76.7 17 -1.6 29.1 25.17 0.991
19:00 1016 30 845 24.95 25.5 77.9 18 -0.3 31.5 25.79 1.015
19:01 1016 30 845 24.95 25.6 78.2 18 -0.3 31.5 26 1.024
19:02 1016 30 845 24.95 25.8 78.5 15 -2.5 27.5 26.18 1.031
19:03 1016 30 845 24.95 26.1 79 18 -0.1 31.8 26.47 1.042
19:04 1016 30 845 24.95 26.1 78.9 18 -0.1 31.9 26.44 1.041
19:05 1016 30 845 24.95 25.9 78.7 18 -0 31.9 26.32 1.036
19:06 1016 30 845 24.95 25.9 78.6 19 0.9 33.7 26.27 1.034
19:07 1016 30 845 24.95 25.7 78.2 19 0.6 33 26.06 1.026
19:08 1016 30 845 24.95 25.5 78 20 0.9 33.6 25.89 1.019
19:09 1016 30 845 24.95 25.5 77.8 19 0.8 33.4 25.81 1.016
19:10 1016 30 845 24.95 25.5 77.9 19 0.7 33.2 25.84 1.017
19:11 1016 30 845 24.95 25.4 77.7 20 1.2 34.1 25.78 1.015
19:12 1016 30 845 24.95 25.5 77.9 19 0.2 32.4 25.82 1.017
19:13 1016 30 845 24.95 25.6 78.1 17 -0.7 30.8 26.02 1.024
19:14 1016 30 845 24.95 25.8 78.4 19 0.4 32.7 26.16 1.03
19:15 1016 30 845 24.95 25.8 78.4 20 1.2 34.1 26.14 1.029
19:16 1016 30 845 24.95 25.6 78.2 18 -0.4 31.4 25.97 1.022
19:17 1016 30 845 24.95 25.7 78.3 19 0.3 32.6 26.03 1.025
19:18 1016 30 845 24.95 25.8 78.5 18 0.1 32.2 26.17 1.03
19:19 1016 30 845 24.95 25.8 78.5 18 -0.3 31.5 26.19 1.031
19:20 1016 30 845 24.95 25.9 78.6 18 0.3 32.6 26.25 1.033
19:21 1016 30 845 24.95 25.8 78.4 20 1.2 34.1 26.15 1.03
19:22 1016 30 845 24.95 25.5 77.9 20 1.3 34.3 25.98 1.023
19:23 1016 30 845 24.95 25.3 77.5 21 1.4 34.4 25.68 1.011
19:24 1016 30 845 24.95 25.1 77.3 20 0.5 32.9 25.52 1.005
19:25 1016 30 845 24.95 25.1 77.2 20 0.9 33.6 25.46 1.002
19:26 1016 30 845 24.95 25 77.1 20 0.9 33.6 25.42 1.001
19:27 1016 30 845 24.95 25.1 77.2 20 1 33.8 25.46 1.002
19:28 1016 30 845 24.95 25.1 77.2 20 1.1 34 25.46 1.002
19:29 1016 30 845 24.95 25.1 77.1 21 1.8 35.2 25.4 1
19:30 1016 30 845 24.95 25 76.9 22 2.1 35.7 25.31 0.996
19:31 1016 30 845 24.95 24.8 76.6 22 2 35.6 25.13 0.989
19:32 1016 30 845 24.95 24.6 76.3 22 1.8 35.2 24.95 0.982
19:33 1016 30 845 24.95 24.6 76.2 22 1.9 35.4 24.94 0.982
19:34 1016 30 845 24.95 24.4 76 23 2.1 35.8 24.8 0.976
19:35 1016 30 845 24.95 24.4 75.9 23 1.9 35.4 24.74 0.974
19:36 1016 30 845 24.95 24.5 76.1 22 1.5 34.6 24.81 0.977
19:37 1016 30 845 24.95 24.6 76.2 22 1.5 34.7 24.89 0.98
19:38 1016 30 845 24.95 24.7 76.4 22 1.4 34.6 24.97 0.983
19:39 1016 30 845 24.95 24.7 76.5 21 1.3 34.4 25.07 0.987
19:40 1016 30 845 24.95 24.9 76.8 21 1.3 34.3 25.2 0.992
19:41 1016 30 845 24.95 25 76.9 21 1.7 35.1 25.31 0.996
19:42 1016 30 845 24.95 24.9 76.9 21 1.5 34.8 25.27 0.995
19:43 1016 30 845 24.95 24.9 76.9 22 2 35.5 25.28 0.995
19:44 1016 30 845 24.95 24.8 76.7 23 2.3 36.2 25.18 0.991
19:45 1016 30 845 24.95 24.7 76.5 23 2.3 36.1 25.01 0.985
19:46 1016 30 845 24.95 24.6 76.3 23 2.2 36 24.96 0.983
19:47 1016 30 845 24.95 24.5 76.1 23 2.3 36.2 24.83 0.978
19:48 1016 30 845 24.95 24.3 75.8 23 2 35.7 24.64 0.97
19:49 1016 30 845 24.95 24.3 75.8 23 1.8 35.3 24.64 0.97
19:50 1016 30 845 24.95 24.3 75.8 23 2.2 36 24.67 0.971
19:51 1016 30 845 24.95 24.3 75.8 23 2.2 35.9 24.63 0.97
19:52 1016 30 845 24.95 24.3 75.8 22 1.5 34.7 24.64 0.97
19:53 1016 30 845 24.95 24.4 76 22 1.3 34.4 24.77 0.975
19:54 1016 30 845 24.95 24.6 76.2 22 1.7 35 24.86 0.979
19:55 1016 30 845 24.95 24.4 76 22 1.9 35.3 24.82 0.977
19:56 1016 30 845 24.95 24.3 75.8 22 1.7 35 24.65 0.97
19:57 1016 30 845 24.95 24.3 75.8 23 1.8 35.2 24.66 0.971
19:58 1016 30 845 24.95 24.2 75.6 23 1.7 35.1 24.57 0.967
19:59 1016 30 845 24.95 24.1 75.4 21 0.9 33.6 24.45 0.963
20:00 1016 30 845 24.95 24.1 75.4 21 0.9 33.6 24.41 0.961
20:01 1016 30 845 24.95 24.2 75.5 22 1.4 34.5 24.51 0.965
20:02 1016 30 845 24.95 24.1 75.3 21 0.9 33.7 24.42 0.961
20:03 1016 30 845 24.95 24 75.1 22 1.4 34.5 24.35 0.959
20:04 1016 30 845 24.95 23.8 74.9 23 1.5 34.6 24.22 0.954
20:05 1016 30 845 24.95 23.6 74.5 23 1.7 35.1 23.99 0.944
20:06 1016 30 845 24.95 23.4 74.1 24 2 35.6 23.79 0.937
20:07 1016 30 845 24.95 23.2 73.7 25 2.1 35.8 23.56 0.928
20:08 1016 30 845 24.95 23 73.5 24 1.8 35.2 23.39 0.921
20:09 1016 30 845 24.95 23 73.3 24 1.4 34.6 23.33 0.919
20:10 1016 30 845 24.95 23 73.3 25 1.8 35.3 23.33 0.919
20:11 1016 30 845 24.95 22.9 73.2 24 1.5 34.8 23.25 0.915
20:12 1016 30 845 24.95 22.8 73.1 25 1.9 35.4 23.14 0.911
20:13 1016 30 845 24.95 22.7 72.9 25 1.7 35 23.1 0.909
20:14 1015 29.97 845 24.95 22.7 72.8 25 1.8 35.2 23.04 0.907
20:15 1015 29.97 845 24.95 22.6 72.6 25 1.9 35.4 22.93 0.903
20:16 1015 29.97 845 24.95 22.6 72.6 25 1.7 35.1 22.88 0.901
20:17 1015 29.97 845 24.95 22.5 72.6 25 1.9 35.4 22.84 0.899
20:18 1015 29.97 845 24.95 22.4 72.3 26 2.2 35.9 22.71 0.894
20:19 1016 30 845 24.95 22.2 72 26 2.2 35.9 22.57 0.889
20:20 1016 30 845 24.95 22 71.6 28 2.7 36.8 22.34 0.88
20:21 1016 30 845 24.95 21.7 71.1 29 3 37.4 22.09 0.87
20:22 1016 30 845 24.95 21.5 70.7 29 2.7 36.9 21.86 0.861
20:23 1016 30 845 24.95 21.3 70.4 29 2.9 37.2 21.67 0.853
20:24 1016 30 845 24.95 21.1 70.1 30 2.8 37.1 21.51 0.847
20:25 1016 30 845 24.95 21 69.7 29 2.6 36.6 21.28 0.838
20:26 1016 30 845 24.95 21 69.7 29 2.3 36.2 21.27 0.837
20:27 1016 30 845 24.95 21 69.8 29 2.3 36.2 21.32 0.839
20:28 1016 30 845 24.95 21.1 69.9 29 2.6 36.7 21.39 0.842
20:29 1016 30 845 24.95 21 69.8 30 2.8 37 21.32 0.839
20:30 1016 30 845 24.95 20.9 69.7 30 2.8 37 21.2 0.835
20:31 1016 30 845 24.95 20.9 69.6 30 2.7 36.8 21.18 0.834
20:32 1016 30 845 24.95 20.9 69.7 29 2.6 36.7 21.19 0.834
20:33 1016 30 845 24.95 20.9 69.6 29 2.5 36.5 21.22 0.835
20:34 1016 30 845 24.95 21 69.8 29 2.5 36.5 21.32 0.839
20:35 1016 30 845 24.95 21.1 69.9 29 2.5 36.4 21.36 0.841
20:36 1016 30 846 24.98 21.2 70.2 28 2.3 36.1 21.49 0.846
20:37 1016 30 846 24.98 21.5 70.7 26 1.5 34.6 21.73 0.856
20:38 1016 30 845 24.95 21.8 71.2 26 1.7 35.1 22.06 0.869
20:39 1016 30 845 24.95 21.9 71.5 26 1.8 35.3 22.25 0.876
20:40 1016 30 845 24.95 22 71.5 28 2.7 36.8 22.31 0.878
20:41 1016 30 845 24.95 21.9 71.4 28 2.8 37.1 22.18 0.873
20:42 1016 30 845 24.95 21.7 71.1 29 3.1 37.7 22.07 0.869
20:43 1016 30 845 24.95 21.6 70.8 30 3.4 38.2 21.95 0.864
20:44 1016 30 845 24.95 21.5 70.7 29 2.7 36.9 21.84 0.86
20:45 1016 30 845 24.95 22.1 71.8 21 -1.1 30.1 22.41 0.882
20:46 1016 30 845 24.95 23.1 73.5 21 -0 31.9 23.35 0.919
20:47 1016 30 845 24.95 23.4 74 23 1.4 34.5 23.68 0.932
20:48 1016 30 845 24.95 23.4 74 25 2.3 36.2 23.72 0.934
20:49 1016 30 845 24.95 23.1 73.6 26 2.8 37 23.51 0.926
20:50 1016 30 845 24.95 22.8 73 25 2.2 35.9 23.16 0.912
20:51 1016 30 845 24.95 22.6 72.6 26 2.1 35.8 22.92 0.902
20:52 1016 30 845 24.95 22.5 72.4 26 2.2 35.9 22.78 0.897
20:53 1016 30 845 24.95 22.3 72.1 26 2.2 35.9 22.63 0.891
20:54 1016 30 845 24.95 22.1 71.7 27 2.3 36.1 22.44 0.883
20:55 1016 30 845 24.95 21.9 71.4 28 2.6 36.7 22.21 0.874
20:56 1016 30 845 24.95 21.7 71.1 29 2.9 37.1 22.05 0.868
20:57 1016 30 845 24.95 21.4 70.5 27 1.9 35.4 21.72 0.855
20:58 1016 30 845 24.95 21.5 70.8 25 1.1 33.9 21.83 0.859
20:59 1016 30 845 24.95 21.9 71.4 24 0.7 33.2 22.16 0.872
21:00 1016 30 845 24.95 22.2 71.9 24 1 33.8 22.47 0.885
21:01 1016 30 845 24.95 22.3 72.1 25 1.4 34.6 22.54 0.887
21:02 1016 30 845 24.95 22.2 71.9 25 1.7 35.1 22.53 0.887
21:03 1016 30 845 24.95 22.1 71.8 25 1.4 34.5 22.46 0.884
21:04 1016 30 845 24.95 22 71.7 26 1.7 35.1 22.38 0.881
21:05 1016 30 845 24.95 22 71.6 26 2.1 35.7 22.33 0.879
21:06 1016 30 845 24.95 21.9 71.4 26 1.9 35.4 22.21 0.874
21:07 1016 30 845 24.95 21.8 71.2 27 2.1 35.8 22.1 0.87
21:08 1016 30 845 24.95 21.8 71.3 25 1.3 34.3 22.08 0.869
21:09 1016 30 845 24.95 22.1 71.8 25 1.5 34.8 22.35 0.88
21:10 1016 30 845 24.95 22.1 71.8 27 2.3 36.2 22.42 0.883
21:11 1016 30 845 24.95 22 71.6 27 2.4 36.4 22.34 0.88
21:12 1016 30 845 24.95 21.8 71.2 27 2.2 36 22.17 0.873
21:13 1016 30 845 24.95 21.7 71.1 27 2.1 35.8 22.06 0.869
21:14 1016 30 845 24.95 21.7 71 27 2 35.7 22.01 0.867
21:15 1016 30 845 24.95 21.7 71 27 2.1 35.9 22 0.866
21:16 1016 30 845 24.95 21.7 71 28 2.4 36.3 22.02 0.867
21:17 1016 30 845 24.95 21.6 70.9 28 2.5 36.4 21.96 0.865
21:18 1016 30 845 24.95 21.5 70.8 29 2.8 37 21.89 0.862
21:19 1016 30 845 24.95 21.4 70.5 30 3 37.5 21.76 0.857
21:20 1016 30 845 24.95 21.2 70.1 30 3 37.4 21.6 0.85
21:21 1016 30 845 24.95 21.1 69.9 29 2.8 37 21.47 0.845
21:22 1016 30 845 24.95 21.1 69.9 29 2.7 36.8 21.38 0.842
21:23 1016 30 845 24.95 21 69.8 31 3.4 38.2 21.34 0.84
21:24 1016 30 845 24.95 20.9 69.5 31 3.4 38.2 21.27 0.837
21:25 1016 30 845 24.95 20.8 69.4 30 2.6 36.8 21.09 0.83
21:26 1016 30 845 24.95 20.9 69.6 30 2.7 36.9 21.16 0.833
21:27 1016 30 845 24.95 20.9 69.5 31 3.4 38.2 21.14 0.832
21:28 1016 30 845 24.95 20.7 69.3 31 3.2 37.7 21.03 0.828
21:29 1016 30 845 24.95 20.6 69.1 32 3.4 38 20.92 0.824
21:30 1016 30 845 24.95 20.5 68.8 32 3.5 38.2 20.75 0.817
21:31 1016 30 845 24.95 20.3 68.5 32 3.3 37.9 20.6 0.811
21:32 1016 30 845 24.95 20.2 68.4 33 3.7 38.6 20.48 0.806
21:33 1016 30 845 24.95 20 68.1 34 3.9 39.1 20.35 0.801
21:34 1016 30 845 24.95 19.8 67.7 36 4.5 40.1 20.09 0.791
21:35 1016 30 845 24.95 19.6 67.2 38 5 41 19.87 0.782
21:36 1016 30 845 24.95 19.3 66.7 38 4.8 40.7 19.56 0.77
21:37 1016 30 845 24.95 19 66.2 40 5.2 41.3 19.31 0.76
21:38 1016 30 845 24.95 18.8 65.8 41 5.3 41.6 19.15 0.754
21:39 1016 30 845 24.95 18.7 65.6 41 5.3 41.5 18.96 0.746
21:40 1016 30 845 24.95 18.5 65.4 41 5.2 41.4 18.82 0.741
21:41 1016 30 845 24.95 18.5 65.2 42 5.3 41.5 18.77 0.739
21:42 1016 30 845 24.95 18.4 65.1 42 5.5 42 18.73 0.737
21:43 1016 30 845 24.95 18.3 64.9 43 5.7 42.2 18.64 0.734
21:44 1016 30 845 24.95 18.2 64.8 43 5.6 42.1 18.56 0.731
21:45 1016 30 845 24.95 18.1 64.6 43 5.4 41.8 18.45 0.726
21:46 1016 30 845 24.95 18.1 64.6 43 5.5 41.9 18.42 0.725
21:47 1016 30 845 24.95 18.1 64.6 43 5.5 41.9 18.38 0.724
21:48 1016 30 845 24.95 18.1 64.6 42 5.2 41.3 18.4 0.724
21:49 1016 30 845 24.95 18.2 64.7 41 4.8 40.7 18.47 0.727
21:50 1016 30 845 24.95 18.4 65 41 4.9 40.8 18.58 0.731
21:51 1016 30 845 24.95 18.4 65.1 41 5.1 41.1 18.67 0.735
21:52 1016 30 845 24.95 18.4 65.1 42 5.3 41.6 18.64 0.734
21:53 1016 30 845 24.95 18.3 65 41 4.8 40.7 18.61 0.733
21:54 1016 30 845 24.95 18.5 65.2 41 5.2 41.3 18.7 0.736
21:55 1016 30 845 24.95 18.6 65.4 39 4.6 40.2 18.84 0.742
21:56 1016 30 845 24.95 18.7 65.7 38 4.3 39.8 18.93 0.745
21:57 1016 30 845 24.95 18.9 66 39 4.9 40.9 19.15 0.754
21:58 1016 30 845 24.95 18.9 66 38 4.6 40.3 19.16 0.754
21:59 1016 30 845 24.95 18.9 66 38 4.3 39.8 19.16 0.754
22:00 1016 30 845 24.95 19 66.2 37 4 39.2 19.29 0.759
22:01 1016 30 845 24.95 19.1 66.4 36 3.6 38.6 19.34 0.761
22:02 1016 30 845 24.95 19.2 66.6 34 3.1 37.5 19.45 0.766
22:03 1016 30 845 24.95 19.4 67 34 3.3 37.9 19.6 0.772
22:04 1016 30 845 24.95 19.6 67.3 33 3.2 37.8 19.78 0.779
22:05 1016 30 845 24.95 19.7 67.5 33 3.3 38 19.93 0.785
22:06 1016 30 845 24.95 19.7 67.5 35 3.9 39 20 0.787
22:07 1016 30 845 24.95 19.7 67.4 36 4.2 39.5 19.95 0.785
22:08 1016 30 845 24.95 19.6 67.2 34 3.6 38.5 19.89 0.783
22:09 1016 30 845 24.95 19.6 67.2 32 2.7 36.9 19.86 0.782
22:10 1016 30 845 24.95 19.6 67.3 35 4 39.2 19.86 0.782
22:11 1016 30 845 24.95 19.6 67.3 36 4.4 39.9 19.91 0.784
22:12 1016 30 845 24.95 19.5 67.1 37 4.5 40.2 19.82 0.78
22:13 1016 30 845 24.95 19.3 66.8 42 6.3 43.3 19.61 0.772
22:14 1016 30 845 24.95 18.9 66.1 45 6.9 44.4 19.19 0.756
22:15 1016 30 845 24.95 18.4 65.2 46 6.8 44.3 18.7 0.736
22:16 1016 30 845 24.95 18.1 64.5 44 5.7 42.2 18.34 0.722
22:17 1016 30 845 24.95 18 64.4 45 5.9 42.6 18.29 0.72
22:18 1016 30 845 24.95 18 64.4 45 6.1 42.9 18.23 0.718
22:19 1016 30 845 24.95 17.9 64.2 45 5.8 42.4 18.19 0.716
22:20 1016 30 845 24.95 18.1 64.5 41 4.6 40.3 18.31 0.721
22:21 1016 30 845 24.95 18.4 65.2 37 3.4 38.2 18.7 0.736
22:22 1016 30 845 24.95 18.8 65.8 35 3.2 37.8 19.01 0.748
22:23 1016 30 846 24.98 18.9 66 42 5.7 42.3 19.11 0.752
22:24 1016 30 846 24.98 18.6 65.4 43 5.9 42.6 18.85 0.742
22:25 1016 30 846 24.98 18.3 65 44 6.1 43 18.62 0.733
22:26 1016 30 846 24.98 18.1 64.5 46 6.4 43.5 18.34 0.722
22:27 1017 30.03 846 24.98 17.9 64.1 47 6.5 43.7 18.17 0.715
22:28 1017 30.03 846 24.98 17.7 63.9 44 5.6 42 18 0.709
22:29 1017 30.03 846 24.98 17.6 63.7 48 6.6 43.8 17.96 0.707
22:30 1017 30.03 846 24.98 17.5 63.6 49 6.8 44.2 17.86 0.703
22:31 1017 30.03 846 24.98 17.4 63.3 50 7 44.7 17.74 0.698
22:32 1017 30.03 846 24.98 17.3 63.2 47 6.1 43 17.63 0.694
22:33 1017 30.03 846 24.98 17.3 63.2 49 6.6 43.8 17.68 0.696
22:34 1017 30.03 846 24.98 17.4 63.2 49 6.7 44.1 17.67 0.696
22:35 1017 30.03 846 24.98 17.3 63.2 48 6.5 43.6 17.62 0.694
22:36 1017 30.03 846 24.98 17.3 63.2 49 6.7 44 17.62 0.694
22:37 1017 30.03 846 24.98 17.2 63 50 6.9 44.4 17.54 0.691
22:38 1017 30.03 846 24.98 17.1 62.8 50 6.8 44.3 17.42 0.686
22:39 1017 30.03 846 24.98 17 62.7 51 6.9 44.4 17.36 0.683
22:40 1017 30.03 846 24.98 17 62.7 49 6.2 43.2 17.36 0.683
22:41 1017 30.03 846 24.98 17.2 62.9 48 6.3 43.4 17.51 0.689
22:42 1016 30 846 24.98 17.3 63.1 49 6.4 43.6 17.55 0.691
22:43 1016 30 846 24.98 17.3 63.1 49 6.7 44 17.61 0.693
22:44 1016 30 846 24.98 17.2 63 48 6.3 43.4 17.59 0.693
22:45 1016 30 846 24.98 17.2 63 50 6.8 44.2 17.53 0.69
22:46 1016 30 846 24.98 17.1 62.8 49 6.4 43.5 17.49 0.689
22:47 1016 30 846 24.98 17.1 62.8 50 6.7 44.1 17.47 0.688
22:48 1016 30 846 24.98 17.1 62.8 50 6.8 44.3 17.45 0.687
22:49 1016 30 846 24.98 17 62.7 51 7 44.7 17.38 0.684
22:50 1016 30 846 24.98 17 62.6 51 6.9 44.5 17.32 0.682
22:51 1016 30 846 24.98 16.9 62.5 51 6.9 44.4 17.28 0.68
22:52 1016 30 846 24.98 16.9 62.4 52 7.1 44.8 17.23 0.678
22:53 1016 30 846 24.98 16.8 62.2 52 7 44.5 17.18 0.676
22:54 1016 30 846 24.98 16.8 62.3 51 6.9 44.4 17.17 0.676
22:55 1016 30 846 24.98 16.9 62.3 53 7.3 45.2 17.23 0.678
22:56 1016 30 846 24.98 16.8 62.2 53 7.3 45.2 17.18 0.676
22:57 1016 30 846 24.98 16.8 62.2 53 7.1 44.8 17.17 0.676
22:58 1016 30 846 24.98 16.8 62.2 51 6.8 44.3 17.18 0.676
22:59 1016 30 846 24.98 16.9 62.4 51 6.9 44.4 17.24 0.679
23:00 1016 30 846 24.98 17 62.5 51 6.9 44.4 17.28 0.68
23:01 1016 30 846 24.98 17 62.6 49 6.3 43.4 17.34 0.683
23:02 1016 30 846 24.98 17.1 62.8 49 6.4 43.5 17.48 0.688
23:03 1016 30 846 24.98 17.3 63.1 48 6.4 43.6 17.58 0.692
23:04 1016 30 846 24.98 17.4 63.2 47 6.1 43 17.72 0.698
23:05 1016 30 846 24.98 17.5 63.6 46 5.8 42.4 17.87 0.704
23:06 1016 30 846 24.98 17.7 63.8 46 6.1 42.9 17.98 0.708
23:07 1016 30 846 24.98 17.7 63.9 46 6.1 43 18.05 0.711
23:08 1016 30 846 24.98 17.8 64 45 5.8 42.4 18.12 0.713
23:09 1016 30 846 24.98 17.8 64.1 45 6 42.7 18.14 0.714
23:10 1016 30 846 24.98 17.9 64.2 45 6 42.8 18.23 0.718
23:11 1016 30 846 24.98 17.9 64.2 46 6.2 43.1 18.25 0.719
23:12 1016 30 846 24.98 17.9 64.2 45 6 42.9 18.25 0.719
23:13 1016 30 846 24.98 17.9 64.1 46 6.1 43 18.22 0.717
23:14 1016 30 846 24.98 17.8 64.1 47 6.4 43.5 18.25 0.719
23:15 1016 30 846 24.98 17.8 64 47 6.5 43.8 18.15 0.715
23:16 1016 30 846 24.98 17.7 63.8 48 6.7 44 18.05 0.711
23:17 1016 30 846 24.98 17.5 63.5 49 6.8 44.2 17.93 0.706
23:18 1016 30 846 24.98 17.4 63.3 50 6.9 44.4 17.81 0.701
23:19 1016 30 846 24.98 17.3 63.1 50 6.8 44.3 17.61 0.693
23:20 1016 30 846 24.98 17.2 63 50 6.7 44.1 17.53 0.69
23:21 1016 30 846 24.98 17.2 62.9 47 6 42.8 17.54 0.691
23:22 1016 30 846 24.98 17.3 63.1 46 5.8 42.4 17.64 0.694
23:23 1016 30 846 24.98 17.4 63.4 47 6.2 43.1 17.78 0.7
23:24 1016 30 846 24.98 17.4 63.4 48 6.6 43.8 17.77 0.7
23:25 1016 30 846 24.98 17.3 63.2 49 6.6 43.9 17.65 0.695
23:26 1016 30 846 24.98 17.3 63.1 48 6.4 43.5 17.62 0.694
23:27 1016 30 846 24.98 17.2 63 48 6.3 43.3 17.62 0.694
23:28 1016 30 846 24.98 17.3 63.1 47 6 42.9 17.6 0.693
23:29 1016 30 846 24.98 17.3 63.1 47 6 42.9 17.63 0.694
23:30 1016 30 846 24.98 17.4 63.3 46 5.9 42.7 17.73 0.698
23:31 1016 30 846 24.98 17.5 63.4 45 5.6 42.1 17.83 0.702
23:32 1016 30 846 24.98 17.5 63.6 46 5.7 42.3 17.87 0.704
23:33 1016 30 846 24.98 17.6 63.8 45 5.7 42.3 17.98 0.708
23:34 1016 30 846 24.98 17.7 63.9 45 5.6 42.2 18.05 0.711
23:35 1016 30 846 24.98 17.8 64 45 5.7 42.3 18.12 0.713
23:36 1016 30 846 24.98 17.8 64 45 5.9 42.7 18.19 0.716
23:37 1016 30 846 24.98 17.8 64 45 5.9 42.5 18.13 0.714
23:38 1016 30 845 24.95 17.8 64.1 45 5.7 42.3 18.19 0.716
23:39 1016 30 845 24.95 17.9 64.2 44 5.7 42.2 18.24 0.718
23:40 1016 30 845 24.95 17.9 64.2 44 5.5 41.9 18.28 0.72
23:41 1016 30 845 24.95 17.9 64.3 44 5.6 42.2 18.3 0.72
23:42 1016 30 845 24.95 18 64.3 44 5.7 42.3 18.32 0.721
23:43 1016 30 845 24.95 18 64.3 43 5.5 41.8 18.3 0.72
23:44 1016 30 845 24.95 18 64.4 44 5.7 42.2 18.35 0.722
23:45 1016 30 845 24.95 18 64.4 43 5.4 41.8 18.34 0.722
23:46 1016 30 845 24.95 18 64.4 45 6 42.9 18.34 0.722
23:47 1016 30 846 24.98 17.9 64.3 46 6.2 43.2 18.31 0.721
23:48 1016 30 846 24.98 17.8 64.1 47 6.4 43.6 18.18 0.716
23:49 1016 30 846 24.98 17.7 63.8 47 6.4 43.4 18.03 0.71
23:50 1016 30 846 24.98 17.6 63.7 47 6.3 43.3 17.96 0.707
23:51 1016 30 846 24.98 17.5 63.5 47 6.2 43.1 17.88 0.704
23:52 1016 30 846 24.98 17.5 63.4 49 6.6 43.9 17.81 0.701
23:53 1016 30 846 24.98 17.4 63.3 49 6.7 44 17.75 0.699
23:54 1016 30 846 24.98 17.5 63.5 46 5.8 42.5 17.81 0.701
23:55 1016 30 846 24.98 17.6 63.7 46 6.1 43 17.86 0.703
23:56 1016 30 846 24.98 17.6 63.7 45 5.7 42.2 17.99 0.708
23:57 1016 30 846 24.98 17.7 63.9 46 5.9 42.7 18.04 0.71
23:58 1016 30 846 24.98 17.7 63.8 46 6 42.7 18.02 0.709
23:59 1016 30 846 24.98 17.7 63.8 46 6 42.8 18.01 0.709
24:00 1016 30 845 24.95 17.6 63.7 46 6 42.7 18.01 0.709